<?xml version="1.0" encoding="UTF-8" standalone="no" ?>
<gpx xmlns="http://www.topografix.com/GPX/1/1" xmlns:xsi="http://www.w3.org/2001/XMLSchema-instance" xsi:schemaLocation="http://www.topografix.com/GPX/1/1 http://www.topografix.com/GPX/1/1/gpx.xsd" version="1.1" creator="VisuGPX - https://www.visugpx.com">
  <metadata>
    <name>Autour de la palmyre</name>
  </metadata>
  <trk>
    <name><![CDATA[randogps17-221]]></name>
    <trkseg>
      <trkpt lat="45.69485" lon="-1.17144">
        <ele>2.175781</ele>
        <time>2014-02-12T13:28:05Z</time>
      </trkpt>
      <trkpt lat="45.69434" lon="-1.17143">
        <ele>3.40625</ele>
      </trkpt>
      <trkpt lat="45.69442" lon="-1.16973">
        <ele>3.9375</ele>
      </trkpt>
      <trkpt lat="45.69445" lon="-1.16899">
        <ele>4.863281</ele>
      </trkpt>
      <trkpt lat="45.69444" lon="-1.16819">
        <ele>6.640625</ele>
      </trkpt>
      <trkpt lat="45.69437" lon="-1.16747">
        <ele>7.039062</ele>
        <time>2014-02-12T13:36:43Z</time>
      </trkpt>
      <trkpt lat="45.69439" lon="-1.16717">
        <ele>6.976562</ele>
      </trkpt>
      <trkpt lat="45.69445" lon="-1.16688">
        <ele>6.75</ele>
        <time>2014-02-12T13:42:22Z</time>
      </trkpt>
      <trkpt lat="45.69449" lon="-1.16673">
        <ele>6.597656</ele>
        <time>2014-02-12T13:43:00Z</time>
      </trkpt>
      <trkpt lat="45.69453" lon="-1.16655">
        <ele>6.476562</ele>
        <time>2014-02-12T13:43:13Z</time>
      </trkpt>
      <trkpt lat="45.69454" lon="-1.16635">
        <ele>6.4375</ele>
        <time>2014-02-12T13:43:25Z</time>
      </trkpt>
      <trkpt lat="45.69452" lon="-1.16616">
        <ele>6.511719</ele>
        <time>2014-02-12T13:43:36Z</time>
      </trkpt>
      <trkpt lat="45.69449" lon="-1.16594">
        <ele>6.59375</ele>
        <time>2014-02-12T13:43:51Z</time>
      </trkpt>
      <trkpt lat="45.69438" lon="-1.16569">
        <ele>6.535156</ele>
        <time>2014-02-12T13:44:07Z</time>
      </trkpt>
      <trkpt lat="45.69433" lon="-1.16548">
        <ele>6.503906</ele>
        <time>2014-02-12T13:44:22Z</time>
      </trkpt>
      <trkpt lat="45.69425" lon="-1.16528">
        <ele>6.898438</ele>
        <time>2014-02-12T13:44:42Z</time>
      </trkpt>
      <trkpt lat="45.69422" lon="-1.1652">
        <ele>7.042969</ele>
        <time>2014-02-12T13:45:37Z</time>
      </trkpt>
      <trkpt lat="45.69418" lon="-1.16503">
        <ele>7.179688</ele>
        <time>2014-02-12T13:45:50Z</time>
      </trkpt>
      <trkpt lat="45.69411" lon="-1.16475">
        <ele>7.351562</ele>
        <time>2014-02-12T13:46:01Z</time>
      </trkpt>
      <trkpt lat="45.69405" lon="-1.16451">
        <ele>7.433594</ele>
        <time>2014-02-12T13:46:17Z</time>
      </trkpt>
      <trkpt lat="45.69398" lon="-1.1643">
        <ele>7.453125</ele>
        <time>2014-02-12T13:46:30Z</time>
      </trkpt>
      <trkpt lat="45.69395" lon="-1.16409">
        <ele>7.191406</ele>
        <time>2014-02-12T13:46:42Z</time>
      </trkpt>
      <trkpt lat="45.69389" lon="-1.16386">
        <ele>6.984375</ele>
        <time>2014-02-12T13:46:54Z</time>
      </trkpt>
      <trkpt lat="45.69386" lon="-1.16368">
        <ele>6.878906</ele>
        <time>2014-02-12T13:47:03Z</time>
      </trkpt>
      <trkpt lat="45.69384" lon="-1.16351">
        <ele>6.933594</ele>
        <time>2014-02-12T13:47:15Z</time>
      </trkpt>
      <trkpt lat="45.6938" lon="-1.16336">
        <ele>7.304688</ele>
        <time>2014-02-12T13:47:25Z</time>
      </trkpt>
      <trkpt lat="45.69378" lon="-1.16312">
        <ele>7.382812</ele>
        <time>2014-02-12T13:47:37Z</time>
      </trkpt>
      <trkpt lat="45.69375" lon="-1.16291">
        <ele>7.355469</ele>
        <time>2014-02-12T13:47:46Z</time>
      </trkpt>
      <trkpt lat="45.69373" lon="-1.16275">
        <ele>7.21875</ele>
        <time>2014-02-12T13:47:54Z</time>
      </trkpt>
      <trkpt lat="45.69372" lon="-1.1626">
        <ele>7.109375</ele>
        <time>2014-02-12T13:48:03Z</time>
      </trkpt>
      <trkpt lat="45.6937" lon="-1.16244">
        <ele>7.3125</ele>
        <time>2014-02-12T13:48:11Z</time>
      </trkpt>
      <trkpt lat="45.69369" lon="-1.16227">
        <ele>7.328125</ele>
        <time>2014-02-12T13:48:20Z</time>
      </trkpt>
      <trkpt lat="45.69365" lon="-1.16211">
        <ele>7.589844</ele>
        <time>2014-02-12T13:48:28Z</time>
      </trkpt>
      <trkpt lat="45.69362" lon="-1.16196">
        <ele>7.890625</ele>
        <time>2014-02-12T13:48:37Z</time>
      </trkpt>
      <trkpt lat="45.69358" lon="-1.1618">
        <ele>8.242188</ele>
        <time>2014-02-12T13:48:46Z</time>
      </trkpt>
      <trkpt lat="45.69356" lon="-1.16161">
        <ele>8.453125</ele>
        <time>2014-02-12T13:48:56Z</time>
      </trkpt>
      <trkpt lat="45.69352" lon="-1.16142">
        <ele>8.386719</ele>
        <time>2014-02-12T13:49:06Z</time>
      </trkpt>
      <trkpt lat="45.69351" lon="-1.16125">
        <ele>7.9375</ele>
        <time>2014-02-12T13:49:15Z</time>
      </trkpt>
      <trkpt lat="45.69351" lon="-1.16108">
        <ele>7.492188</ele>
        <time>2014-02-12T13:49:24Z</time>
      </trkpt>
      <trkpt lat="45.69351" lon="-1.1609">
        <ele>7.179688</ele>
        <time>2014-02-12T13:49:34Z</time>
      </trkpt>
      <trkpt lat="45.69349" lon="-1.16072">
        <ele>7.371094</ele>
        <time>2014-02-12T13:49:43Z</time>
      </trkpt>
      <trkpt lat="45.6935" lon="-1.16054">
        <ele>7.484375</ele>
        <time>2014-02-12T13:49:53Z</time>
      </trkpt>
      <trkpt lat="45.69348" lon="-1.16038">
        <ele>7.621094</ele>
        <time>2014-02-12T13:50:02Z</time>
      </trkpt>
      <trkpt lat="45.69347" lon="-1.16024">
        <ele>7.640625</ele>
        <time>2014-02-12T13:50:10Z</time>
      </trkpt>
      <trkpt lat="45.69348" lon="-1.16006">
        <ele>7.625</ele>
        <time>2014-02-12T13:50:19Z</time>
      </trkpt>
      <trkpt lat="45.69351" lon="-1.15987">
        <ele>7.578125</ele>
        <time>2014-02-12T13:50:29Z</time>
      </trkpt>
      <trkpt lat="45.69352" lon="-1.15972">
        <ele>7.679688</ele>
        <time>2014-02-12T13:50:38Z</time>
      </trkpt>
      <trkpt lat="45.69353" lon="-1.15957">
        <ele>7.792969</ele>
        <time>2014-02-12T13:50:47Z</time>
      </trkpt>
      <trkpt lat="45.69356" lon="-1.1594">
        <ele>7.859375</ele>
        <time>2014-02-12T13:50:56Z</time>
      </trkpt>
      <trkpt lat="45.69356" lon="-1.15924">
        <ele>7.988281</ele>
        <time>2014-02-12T13:51:04Z</time>
      </trkpt>
      <trkpt lat="45.6936" lon="-1.15907">
        <ele>7.984375</ele>
        <time>2014-02-12T13:51:13Z</time>
      </trkpt>
      <trkpt lat="45.6936" lon="-1.1589">
        <ele>8.082031</ele>
        <time>2014-02-12T13:51:22Z</time>
      </trkpt>
      <trkpt lat="45.69361" lon="-1.15872">
        <ele>8.179688</ele>
        <time>2014-02-12T13:51:32Z</time>
      </trkpt>
      <trkpt lat="45.6936" lon="-1.15856">
        <ele>8.113281</ele>
        <time>2014-02-12T13:51:42Z</time>
      </trkpt>
      <trkpt lat="45.69358" lon="-1.15841">
        <ele>8.0625</ele>
        <time>2014-02-12T13:51:51Z</time>
      </trkpt>
      <trkpt lat="45.69357" lon="-1.15824">
        <ele>7.960938</ele>
        <time>2014-02-12T13:52:00Z</time>
      </trkpt>
      <trkpt lat="45.69361" lon="-1.15806">
        <ele>7.773438</ele>
        <time>2014-02-12T13:52:10Z</time>
      </trkpt>
      <trkpt lat="45.69361" lon="-1.15791">
        <ele>7.757812</ele>
        <time>2014-02-12T13:52:19Z</time>
      </trkpt>
      <trkpt lat="45.69362" lon="-1.15775">
        <ele>7.746094</ele>
        <time>2014-02-12T13:52:27Z</time>
      </trkpt>
      <trkpt lat="45.69364" lon="-1.15758">
        <ele>7.738281</ele>
        <time>2014-02-12T13:52:36Z</time>
      </trkpt>
      <trkpt lat="45.69367" lon="-1.1574">
        <ele>7.871094</ele>
        <time>2014-02-12T13:52:45Z</time>
      </trkpt>
      <trkpt lat="45.69369" lon="-1.15724">
        <ele>8.007812</ele>
        <time>2014-02-12T13:52:54Z</time>
      </trkpt>
      <trkpt lat="45.69371" lon="-1.15706">
        <ele>8.226562</ele>
        <time>2014-02-12T13:53:03Z</time>
      </trkpt>
      <trkpt lat="45.69372" lon="-1.15688">
        <ele>8.585938</ele>
        <time>2014-02-12T13:53:12Z</time>
      </trkpt>
      <trkpt lat="45.69372" lon="-1.15672">
        <ele>8.9375</ele>
        <time>2014-02-12T13:53:21Z</time>
      </trkpt>
      <trkpt lat="45.69374" lon="-1.15654">
        <ele>9.273438</ele>
        <time>2014-02-12T13:53:31Z</time>
      </trkpt>
      <trkpt lat="45.69377" lon="-1.15636">
        <ele>9.265625</ele>
        <time>2014-02-12T13:53:41Z</time>
      </trkpt>
      <trkpt lat="45.69379" lon="-1.15618">
        <ele>9.183594</ele>
        <time>2014-02-12T13:53:50Z</time>
      </trkpt>
      <trkpt lat="45.69382" lon="-1.15603">
        <ele>9.066406</ele>
        <time>2014-02-12T13:53:59Z</time>
      </trkpt>
      <trkpt lat="45.69388" lon="-1.15586">
        <ele>9.015625</ele>
        <time>2014-02-12T13:54:08Z</time>
      </trkpt>
      <trkpt lat="45.69391" lon="-1.1557">
        <ele>9.074219</ele>
        <time>2014-02-12T13:54:18Z</time>
      </trkpt>
      <trkpt lat="45.69393" lon="-1.15556">
        <ele>9.140625</ele>
        <time>2014-02-12T13:54:26Z</time>
      </trkpt>
      <trkpt lat="45.69393" lon="-1.15541">
        <ele>9.191406</ele>
        <time>2014-02-12T13:54:34Z</time>
      </trkpt>
      <trkpt lat="45.69392" lon="-1.15524">
        <ele>9.230469</ele>
        <time>2014-02-12T13:54:43Z</time>
      </trkpt>
      <trkpt lat="45.6939" lon="-1.15508">
        <ele>9.226562</ele>
        <time>2014-02-12T13:54:53Z</time>
      </trkpt>
      <trkpt lat="45.69386" lon="-1.15487">
        <ele>9.136719</ele>
        <time>2014-02-12T13:55:04Z</time>
      </trkpt>
      <trkpt lat="45.69379" lon="-1.15467">
        <ele>9.507812</ele>
        <time>2014-02-12T13:55:15Z</time>
      </trkpt>
      <trkpt lat="45.6937" lon="-1.15457">
        <ele>10.070312</ele>
        <time>2014-02-12T13:55:24Z</time>
      </trkpt>
      <trkpt lat="45.69363" lon="-1.15448">
        <ele>10.492188</ele>
        <time>2014-02-12T13:55:33Z</time>
      </trkpt>
      <trkpt lat="45.69355" lon="-1.15438">
        <ele>10.914062</ele>
        <time>2014-02-12T13:55:41Z</time>
      </trkpt>
      <trkpt lat="45.69346" lon="-1.15428">
        <ele>11.371094</ele>
        <time>2014-02-12T13:55:50Z</time>
      </trkpt>
      <trkpt lat="45.69338" lon="-1.15417">
        <ele>11.851562</ele>
        <time>2014-02-12T13:55:58Z</time>
      </trkpt>
      <trkpt lat="45.69329" lon="-1.1541">
        <ele>12.277344</ele>
        <time>2014-02-12T13:56:06Z</time>
      </trkpt>
      <trkpt lat="45.69321" lon="-1.15406">
        <ele>13.144531</ele>
        <time>2014-02-12T13:56:14Z</time>
      </trkpt>
      <trkpt lat="45.69312" lon="-1.15397">
        <ele>14.152344</ele>
        <time>2014-02-12T13:56:22Z</time>
      </trkpt>
      <trkpt lat="45.69304" lon="-1.15389">
        <ele>15.0625</ele>
        <time>2014-02-12T13:56:28Z</time>
      </trkpt>
      <trkpt lat="45.69297" lon="-1.1538">
        <ele>15.742188</ele>
        <time>2014-02-12T13:56:35Z</time>
      </trkpt>
      <trkpt lat="45.69289" lon="-1.15372">
        <ele>16.34375</ele>
        <time>2014-02-12T13:56:41Z</time>
      </trkpt>
      <trkpt lat="45.69281" lon="-1.15364">
        <ele>16.871094</ele>
        <time>2014-02-12T13:56:52Z</time>
      </trkpt>
      <trkpt lat="45.69272" lon="-1.15355">
        <ele>17.296875</ele>
        <time>2014-02-12T13:56:59Z</time>
      </trkpt>
      <trkpt lat="45.69264" lon="-1.15347">
        <ele>17.289062</ele>
        <time>2014-02-12T13:57:06Z</time>
      </trkpt>
      <trkpt lat="45.69255" lon="-1.15338">
        <ele>17.210938</ele>
        <time>2014-02-12T13:57:15Z</time>
      </trkpt>
      <trkpt lat="45.69244" lon="-1.15329">
        <ele>17.050781</ele>
        <time>2014-02-12T13:57:25Z</time>
      </trkpt>
      <trkpt lat="45.69235" lon="-1.15318">
        <ele>16.636719</ele>
        <time>2014-02-12T13:57:33Z</time>
      </trkpt>
      <trkpt lat="45.69225" lon="-1.1531">
        <ele>16.550781</ele>
        <time>2014-02-12T13:57:42Z</time>
      </trkpt>
      <trkpt lat="45.69214" lon="-1.15305">
        <ele>16.492188</ele>
        <time>2014-02-12T13:57:52Z</time>
      </trkpt>
      <trkpt lat="45.69204" lon="-1.15297">
        <ele>16.144531</ele>
        <time>2014-02-12T13:58:01Z</time>
      </trkpt>
      <trkpt lat="45.69196" lon="-1.15288">
        <ele>15.707031</ele>
        <time>2014-02-12T13:58:08Z</time>
      </trkpt>
      <trkpt lat="45.69189" lon="-1.15281">
        <ele>15.308594</ele>
        <time>2014-02-12T13:58:15Z</time>
      </trkpt>
      <trkpt lat="45.69179" lon="-1.15275">
        <ele>14.925781</ele>
        <time>2014-02-12T13:58:24Z</time>
      </trkpt>
      <trkpt lat="45.6917" lon="-1.15267">
        <ele>14.351562</ele>
        <time>2014-02-12T13:58:33Z</time>
      </trkpt>
      <trkpt lat="45.69161" lon="-1.15258">
        <ele>13.746094</ele>
        <time>2014-02-12T13:58:43Z</time>
      </trkpt>
      <trkpt lat="45.69152" lon="-1.15251">
        <ele>13.929688</ele>
        <time>2014-02-12T13:58:52Z</time>
      </trkpt>
      <trkpt lat="45.69142" lon="-1.15243">
        <ele>14.132812</ele>
        <time>2014-02-12T13:59:01Z</time>
      </trkpt>
      <trkpt lat="45.69133" lon="-1.15237">
        <ele>14.332031</ele>
        <time>2014-02-12T13:59:10Z</time>
      </trkpt>
      <trkpt lat="45.69124" lon="-1.15228">
        <ele>14.289062</ele>
        <time>2014-02-12T13:59:19Z</time>
      </trkpt>
      <trkpt lat="45.69116" lon="-1.15217">
        <ele>14.058594</ele>
        <time>2014-02-12T13:59:28Z</time>
      </trkpt>
      <trkpt lat="45.69106" lon="-1.15208">
        <ele>14</ele>
        <time>2014-02-12T13:59:38Z</time>
      </trkpt>
      <trkpt lat="45.69097" lon="-1.15199">
        <ele>14.453125</ele>
        <time>2014-02-12T13:59:48Z</time>
      </trkpt>
      <trkpt lat="45.69088" lon="-1.15191">
        <ele>14.917969</ele>
        <time>2014-02-12T13:59:54Z</time>
      </trkpt>
      <trkpt lat="45.6908" lon="-1.15184">
        <ele>15.398438</ele>
        <time>2014-02-12T14:00:01Z</time>
      </trkpt>
      <trkpt lat="45.69071" lon="-1.15177">
        <ele>15.933594</ele>
        <time>2014-02-12T14:00:09Z</time>
      </trkpt>
      <trkpt lat="45.69062" lon="-1.15167">
        <ele>16.386719</ele>
        <time>2014-02-12T14:00:17Z</time>
      </trkpt>
      <trkpt lat="45.69054" lon="-1.15161">
        <ele>16.863281</ele>
        <time>2014-02-12T14:00:25Z</time>
      </trkpt>
      <trkpt lat="45.69047" lon="-1.15153">
        <ele>17.140625</ele>
        <time>2014-02-12T14:00:33Z</time>
      </trkpt>
      <trkpt lat="45.69037" lon="-1.15144">
        <ele>16.984375</ele>
        <time>2014-02-12T14:00:43Z</time>
      </trkpt>
      <trkpt lat="45.69028" lon="-1.15134">
        <ele>16.605469</ele>
        <time>2014-02-12T14:00:52Z</time>
      </trkpt>
      <trkpt lat="45.6902" lon="-1.15126">
        <ele>16.183594</ele>
        <time>2014-02-12T14:01:01Z</time>
      </trkpt>
      <trkpt lat="45.69009" lon="-1.15119">
        <ele>15.886719</ele>
        <time>2014-02-12T14:01:10Z</time>
      </trkpt>
      <trkpt lat="45.69001" lon="-1.15111">
        <ele>15.328125</ele>
        <time>2014-02-12T14:01:19Z</time>
      </trkpt>
      <trkpt lat="45.6899" lon="-1.15099">
        <ele>14.277344</ele>
        <time>2014-02-12T14:01:29Z</time>
      </trkpt>
      <trkpt lat="45.68982" lon="-1.15091">
        <ele>13.738281</ele>
        <time>2014-02-12T14:01:37Z</time>
      </trkpt>
      <trkpt lat="45.68973" lon="-1.15083">
        <ele>13.460938</ele>
        <time>2014-02-12T14:01:46Z</time>
      </trkpt>
      <trkpt lat="45.68965" lon="-1.15076">
        <ele>13.261719</ele>
        <time>2014-02-12T14:01:54Z</time>
      </trkpt>
      <trkpt lat="45.68957" lon="-1.15066">
        <ele>13.085938</ele>
        <time>2014-02-12T14:02:01Z</time>
      </trkpt>
      <trkpt lat="45.6895" lon="-1.15058">
        <ele>13.023438</ele>
        <time>2014-02-12T14:02:10Z</time>
      </trkpt>
      <trkpt lat="45.68941" lon="-1.15052">
        <ele>13.113281</ele>
        <time>2014-02-12T14:02:18Z</time>
      </trkpt>
      <trkpt lat="45.68931" lon="-1.15043">
        <ele>13.417969</ele>
        <time>2014-02-12T14:02:26Z</time>
      </trkpt>
      <trkpt lat="45.68923" lon="-1.15037">
        <ele>13.835938</ele>
        <time>2014-02-12T14:02:32Z</time>
      </trkpt>
      <trkpt lat="45.68915" lon="-1.15029">
        <ele>14.1875</ele>
        <time>2014-02-12T14:02:39Z</time>
      </trkpt>
      <trkpt lat="45.68907" lon="-1.15021">
        <ele>14.429688</ele>
        <time>2014-02-12T14:02:47Z</time>
      </trkpt>
      <trkpt lat="45.68898" lon="-1.15013">
        <ele>14.582031</ele>
        <time>2014-02-12T14:02:56Z</time>
      </trkpt>
      <trkpt lat="45.68889" lon="-1.15005">
        <ele>14.589844</ele>
        <time>2014-02-12T14:03:41Z</time>
      </trkpt>
      <trkpt lat="45.6888" lon="-1.14994">
        <ele>14.351562</ele>
        <time>2014-02-12T14:03:51Z</time>
      </trkpt>
      <trkpt lat="45.68869" lon="-1.14986">
        <ele>14.261719</ele>
        <time>2014-02-12T14:04:01Z</time>
      </trkpt>
      <trkpt lat="45.6886" lon="-1.14977">
        <ele>14.121094</ele>
        <time>2014-02-12T14:04:11Z</time>
      </trkpt>
      <trkpt lat="45.68847" lon="-1.14969">
        <ele>14.039062</ele>
        <time>2014-02-12T14:04:23Z</time>
      </trkpt>
      <trkpt lat="45.68838" lon="-1.14959">
        <ele>13.84375</ele>
        <time>2014-02-12T14:04:34Z</time>
      </trkpt>
      <trkpt lat="45.68826" lon="-1.14949">
        <ele>13.675781</ele>
        <time>2014-02-12T14:04:44Z</time>
      </trkpt>
      <trkpt lat="45.68818" lon="-1.14941">
        <ele>13.207031</ele>
        <time>2014-02-12T14:04:51Z</time>
      </trkpt>
      <trkpt lat="45.6881" lon="-1.14932">
        <ele>12.765625</ele>
        <time>2014-02-12T14:05:00Z</time>
      </trkpt>
      <trkpt lat="45.68802" lon="-1.14925">
        <ele>12.542969</ele>
        <time>2014-02-12T14:05:08Z</time>
      </trkpt>
      <trkpt lat="45.68793" lon="-1.14917">
        <ele>12.4375</ele>
        <time>2014-02-12T14:05:17Z</time>
      </trkpt>
      <trkpt lat="45.68785" lon="-1.14909">
        <ele>12.4375</ele>
        <time>2014-02-12T14:05:26Z</time>
      </trkpt>
      <trkpt lat="45.68777" lon="-1.14902">
        <ele>12.503906</ele>
        <time>2014-02-12T14:05:34Z</time>
      </trkpt>
      <trkpt lat="45.68769" lon="-1.14893">
        <ele>12.574219</ele>
        <time>2014-02-12T14:05:42Z</time>
      </trkpt>
      <trkpt lat="45.68759" lon="-1.14884">
        <ele>12.382812</ele>
        <time>2014-02-12T14:05:52Z</time>
      </trkpt>
      <trkpt lat="45.68753" lon="-1.14873">
        <ele>12.410156</ele>
        <time>2014-02-12T14:06:01Z</time>
      </trkpt>
      <trkpt lat="45.68746" lon="-1.14864">
        <ele>12.414062</ele>
        <time>2014-02-12T14:06:09Z</time>
      </trkpt>
      <trkpt lat="45.68733" lon="-1.14857">
        <ele>12.246094</ele>
        <time>2014-02-12T14:06:19Z</time>
      </trkpt>
      <trkpt lat="45.68724" lon="-1.14849">
        <ele>12.1875</ele>
        <time>2014-02-12T14:06:28Z</time>
      </trkpt>
      <trkpt lat="45.68716" lon="-1.1484">
        <ele>12.246094</ele>
        <time>2014-02-12T14:06:37Z</time>
      </trkpt>
      <trkpt lat="45.68707" lon="-1.14835">
        <ele>12.34375</ele>
        <time>2014-02-12T14:06:42Z</time>
      </trkpt>
      <trkpt lat="45.68698" lon="-1.1483">
        <ele>12.402344</ele>
        <time>2014-02-12T14:06:50Z</time>
      </trkpt>
      <trkpt lat="45.68687" lon="-1.14823">
        <ele>12.417969</ele>
        <time>2014-02-12T14:06:58Z</time>
      </trkpt>
      <trkpt lat="45.6868" lon="-1.14815">
        <ele>12.339844</ele>
        <time>2014-02-12T14:07:06Z</time>
      </trkpt>
      <trkpt lat="45.68673" lon="-1.14806">
        <ele>12.210938</ele>
        <time>2014-02-12T14:07:14Z</time>
      </trkpt>
      <trkpt lat="45.68664" lon="-1.14798">
        <ele>12.058594</ele>
        <time>2014-02-12T14:07:22Z</time>
      </trkpt>
      <trkpt lat="45.68656" lon="-1.14791">
        <ele>12.085938</ele>
        <time>2014-02-12T14:07:31Z</time>
      </trkpt>
      <trkpt lat="45.68648" lon="-1.14785">
        <ele>12.183594</ele>
        <time>2014-02-12T14:07:39Z</time>
      </trkpt>
      <trkpt lat="45.68637" lon="-1.14776">
        <ele>12.191406</ele>
        <time>2014-02-12T14:07:50Z</time>
      </trkpt>
      <trkpt lat="45.68628" lon="-1.14768">
        <ele>12.101562</ele>
        <time>2014-02-12T14:07:58Z</time>
      </trkpt>
      <trkpt lat="45.68619" lon="-1.1476">
        <ele>11.863281</ele>
        <time>2014-02-12T14:08:08Z</time>
      </trkpt>
      <trkpt lat="45.6861" lon="-1.14747">
        <ele>11.398438</ele>
        <time>2014-02-12T14:08:17Z</time>
      </trkpt>
      <trkpt lat="45.68598" lon="-1.14738">
        <ele>11.234375</ele>
        <time>2014-02-12T14:08:27Z</time>
      </trkpt>
      <trkpt lat="45.68588" lon="-1.14728">
        <ele>11.050781</ele>
        <time>2014-02-12T14:08:38Z</time>
      </trkpt>
      <trkpt lat="45.68578" lon="-1.1472">
        <ele>10.917969</ele>
        <time>2014-02-12T14:08:47Z</time>
      </trkpt>
      <trkpt lat="45.6857" lon="-1.14711">
        <ele>10.742188</ele>
        <time>2014-02-12T14:08:56Z</time>
      </trkpt>
      <trkpt lat="45.68562" lon="-1.14705">
        <ele>10.742188</ele>
        <time>2014-02-12T14:09:06Z</time>
      </trkpt>
      <trkpt lat="45.68553" lon="-1.14696">
        <ele>10.757812</ele>
        <time>2014-02-12T14:09:16Z</time>
      </trkpt>
      <trkpt lat="45.68535" lon="-1.14682">
        <ele>11.339844</ele>
        <time>2014-02-12T14:09:26Z</time>
      </trkpt>
      <trkpt lat="45.68221" lon="-1.14393">
        <ele>10.863281</ele>
        <time>2014-02-12T14:09:36Z</time>
      </trkpt>
      <trkpt lat="45.68137" lon="-1.14314">
        <ele>15.074219</ele>
      </trkpt>
      <trkpt lat="45.68115" lon="-1.14304">
        <ele>13.410156</ele>
      </trkpt>
      <trkpt lat="45.6807" lon="-1.14251">
        <ele>10.128906</ele>
      </trkpt>
      <trkpt lat="45.68025" lon="-1.14214">
        <ele>9.960938</ele>
      </trkpt>
      <trkpt lat="45.68028" lon="-1.14197">
        <ele>16.082031</ele>
      </trkpt>
      <trkpt lat="45.68027" lon="-1.14188">
        <ele>16.214844</ele>
      </trkpt>
      <trkpt lat="45.68023" lon="-1.14182">
        <ele>16.652344</ele>
      </trkpt>
      <trkpt lat="45.68016" lon="-1.14177">
        <ele>17.546875</ele>
      </trkpt>
      <trkpt lat="45.68009" lon="-1.14175">
        <ele>18.484375</ele>
      </trkpt>
      <trkpt lat="45.68004" lon="-1.14177">
        <ele>19.203125</ele>
      </trkpt>
      <trkpt lat="45.68" lon="-1.14181">
        <ele>19.796875</ele>
      </trkpt>
      <trkpt lat="45.67997" lon="-1.14185">
        <ele>20.265625</ele>
      </trkpt>
      <trkpt lat="45.67981" lon="-1.14167">
        <ele>19.722656</ele>
      </trkpt>
      <trkpt lat="45.68017" lon="-1.14108">
        <ele>17.324219</ele>
      </trkpt>
      <trkpt lat="45.68036" lon="-1.14096">
        <ele>15.96875</ele>
      </trkpt>
      <trkpt lat="45.68055" lon="-1.14096">
        <ele>14.917969</ele>
      </trkpt>
      <trkpt lat="45.68095" lon="-1.14106">
        <ele>13.757812</ele>
      </trkpt>
      <trkpt lat="45.68144" lon="-1.14105">
        <ele>15.65625</ele>
      </trkpt>
      <trkpt lat="45.6815" lon="-1.1412">
        <ele>15.136719</ele>
      </trkpt>
      <trkpt lat="45.68164" lon="-1.14133">
        <ele>15.269531</ele>
      </trkpt>
      <trkpt lat="45.6818" lon="-1.14153">
        <ele>15.328125</ele>
      </trkpt>
      <trkpt lat="45.68193" lon="-1.1417">
        <ele>15.519531</ele>
      </trkpt>
      <trkpt lat="45.68201" lon="-1.14184">
        <ele>15.332031</ele>
      </trkpt>
      <trkpt lat="45.68215" lon="-1.14203">
        <ele>15.144531</ele>
      </trkpt>
      <trkpt lat="45.68236" lon="-1.14222">
        <ele>15.949219</ele>
      </trkpt>
      <trkpt lat="45.68261" lon="-1.14227">
        <ele>17.578125</ele>
      </trkpt>
      <trkpt lat="45.68286" lon="-1.14256">
        <ele>18.457031</ele>
      </trkpt>
      <trkpt lat="45.68304" lon="-1.14282">
        <ele>17.738281</ele>
      </trkpt>
      <trkpt lat="45.68327" lon="-1.14301">
        <ele>15.742188</ele>
      </trkpt>
      <trkpt lat="45.68344" lon="-1.14318">
        <ele>14.773438</ele>
      </trkpt>
      <trkpt lat="45.6836" lon="-1.14341">
        <ele>13.714844</ele>
      </trkpt>
      <trkpt lat="45.68369" lon="-1.14357">
        <ele>12.726562</ele>
      </trkpt>
      <trkpt lat="45.68387" lon="-1.14364">
        <ele>11.59375</ele>
      </trkpt>
      <trkpt lat="45.68406" lon="-1.14367">
        <ele>11.417969</ele>
      </trkpt>
      <trkpt lat="45.68422" lon="-1.14381">
        <ele>10.917969</ele>
      </trkpt>
      <trkpt lat="45.68444" lon="-1.14405">
        <ele>10.410156</ele>
      </trkpt>
      <trkpt lat="45.68449" lon="-1.1441">
        <ele>10.296875</ele>
      </trkpt>
      <trkpt lat="45.68461" lon="-1.14417">
        <ele>10.140625</ele>
      </trkpt>
      <trkpt lat="45.68472" lon="-1.14416">
        <ele>10.105469</ele>
      </trkpt>
      <trkpt lat="45.68551" lon="-1.14395">
        <ele>21.128906</ele>
        <time>2014-02-12T14:21:40Z</time>
      </trkpt>
      <trkpt lat="45.6859" lon="-1.14337">
        <ele>13.492188</ele>
      </trkpt>
      <trkpt lat="45.68612" lon="-1.14323">
        <ele>13.675781</ele>
      </trkpt>
      <trkpt lat="45.68633" lon="-1.14303">
        <ele>14.183594</ele>
      </trkpt>
      <trkpt lat="45.68667" lon="-1.14294">
        <ele>15.148438</ele>
      </trkpt>
      <trkpt lat="45.68687" lon="-1.14297">
        <ele>15.382812</ele>
      </trkpt>
      <trkpt lat="45.68717" lon="-1.14307">
        <ele>15.765625</ele>
      </trkpt>
      <trkpt lat="45.68741" lon="-1.14322">
        <ele>15.636719</ele>
      </trkpt>
      <trkpt lat="45.68764" lon="-1.14359">
        <ele>15.960938</ele>
        <time>2014-02-12T14:21:55Z</time>
      </trkpt>
      <trkpt lat="45.68772" lon="-1.14368">
        <ele>15.878906</ele>
        <time>2014-02-12T14:22:10Z</time>
      </trkpt>
      <trkpt lat="45.68781" lon="-1.14382">
        <ele>16.066406</ele>
        <time>2014-02-12T14:22:22Z</time>
      </trkpt>
      <trkpt lat="45.68788" lon="-1.14405">
        <ele>16.457031</ele>
        <time>2014-02-12T14:22:41Z</time>
      </trkpt>
      <trkpt lat="45.68804" lon="-1.14418">
        <ele>16.070312</ele>
        <time>2014-02-12T14:22:59Z</time>
      </trkpt>
      <trkpt lat="45.68816" lon="-1.14429">
        <ele>15.582031</ele>
        <time>2014-02-12T14:23:12Z</time>
      </trkpt>
      <trkpt lat="45.68829" lon="-1.14435">
        <ele>15.15625</ele>
        <time>2014-02-12T14:23:25Z</time>
      </trkpt>
      <trkpt lat="45.68847" lon="-1.14443">
        <ele>15.292969</ele>
        <time>2014-02-12T14:23:41Z</time>
      </trkpt>
      <trkpt lat="45.68859" lon="-1.1445">
        <ele>15.3125</ele>
        <time>2014-02-12T14:23:58Z</time>
      </trkpt>
      <trkpt lat="45.68882" lon="-1.14443">
        <ele>15.007812</ele>
        <time>2014-02-12T14:24:27Z</time>
      </trkpt>
      <trkpt lat="45.689" lon="-1.14434">
        <ele>15</ele>
        <time>2014-02-12T14:24:53Z</time>
      </trkpt>
      <trkpt lat="45.68925" lon="-1.14451">
        <ele>15</ele>
        <time>2014-02-12T14:25:15Z</time>
      </trkpt>
      <trkpt lat="45.68937" lon="-1.14464">
        <ele>15</ele>
        <time>2014-02-12T14:25:30Z</time>
      </trkpt>
      <trkpt lat="45.68952" lon="-1.14482">
        <ele>15.949219</ele>
        <time>2014-02-12T14:25:50Z</time>
      </trkpt>
      <trkpt lat="45.68966" lon="-1.14501">
        <ele>16.960938</ele>
        <time>2014-02-12T14:26:08Z</time>
      </trkpt>
      <trkpt lat="45.68981" lon="-1.14509">
        <ele>18.054688</ele>
        <time>2014-02-12T14:26:27Z</time>
      </trkpt>
      <trkpt lat="45.68995" lon="-1.1453">
        <ele>19.023438</ele>
        <time>2014-02-12T14:26:51Z</time>
      </trkpt>
      <trkpt lat="45.69014" lon="-1.14543">
        <ele>19.304688</ele>
        <time>2014-02-12T14:27:12Z</time>
      </trkpt>
      <trkpt lat="45.69034" lon="-1.14551">
        <ele>19.503906</ele>
        <time>2014-02-12T14:27:39Z</time>
      </trkpt>
      <trkpt lat="45.69047" lon="-1.14562">
        <ele>19.5625</ele>
        <time>2014-02-12T14:28:00Z</time>
      </trkpt>
      <trkpt lat="45.69065" lon="-1.14582">
        <ele>19.074219</ele>
        <time>2014-02-12T14:28:22Z</time>
      </trkpt>
      <trkpt lat="45.69069" lon="-1.14605">
        <ele>18.414062</ele>
        <time>2014-02-12T14:28:44Z</time>
      </trkpt>
      <trkpt lat="45.69068" lon="-1.14624">
        <ele>17.859375</ele>
        <time>2014-02-12T14:29:03Z</time>
      </trkpt>
      <trkpt lat="45.69071" lon="-1.14645">
        <ele>17.210938</ele>
        <time>2014-02-12T14:31:19Z</time>
      </trkpt>
      <trkpt lat="45.69073" lon="-1.1466">
        <ele>16.917969</ele>
        <time>2014-02-12T14:32:22Z</time>
      </trkpt>
      <trkpt lat="45.69077" lon="-1.14676">
        <ele>16.785156</ele>
        <time>2014-02-12T14:32:41Z</time>
      </trkpt>
      <trkpt lat="45.69079" lon="-1.14704">
        <ele>16.558594</ele>
        <time>2014-02-12T14:33:14Z</time>
      </trkpt>
      <trkpt lat="45.69091" lon="-1.14715">
        <ele>16.519531</ele>
        <time>2014-02-12T14:35:43Z</time>
      </trkpt>
      <trkpt lat="45.691" lon="-1.14729">
        <ele>16.183594</ele>
        <time>2014-02-12T14:37:48Z</time>
      </trkpt>
      <trkpt lat="45.69112" lon="-1.14741">
        <ele>15.84375</ele>
        <time>2014-02-12T14:38:06Z</time>
      </trkpt>
      <trkpt lat="45.69126" lon="-1.14751">
        <ele>15.660156</ele>
        <time>2014-02-12T14:38:20Z</time>
      </trkpt>
      <trkpt lat="45.69142" lon="-1.14763">
        <ele>15.667969</ele>
        <time>2014-02-12T14:38:38Z</time>
      </trkpt>
      <trkpt lat="45.69158" lon="-1.14771">
        <ele>15.820312</ele>
        <time>2014-02-12T14:39:00Z</time>
      </trkpt>
      <trkpt lat="45.69176" lon="-1.14788">
        <ele>15.390625</ele>
        <time>2014-02-12T14:39:18Z</time>
      </trkpt>
      <trkpt lat="45.69192" lon="-1.14805">
        <ele>15.101562</ele>
        <time>2014-02-12T14:39:31Z</time>
      </trkpt>
      <trkpt lat="45.6921" lon="-1.14828">
        <ele>15</ele>
        <time>2014-02-12T14:39:48Z</time>
      </trkpt>
      <trkpt lat="45.69224" lon="-1.14848">
        <ele>14.789062</ele>
        <time>2014-02-12T14:40:03Z</time>
      </trkpt>
      <trkpt lat="45.69234" lon="-1.14869">
        <ele>14.378906</ele>
        <time>2014-02-12T14:40:19Z</time>
      </trkpt>
      <trkpt lat="45.69243" lon="-1.14881">
        <ele>13.976562</ele>
        <time>2014-02-12T14:40:30Z</time>
      </trkpt>
      <trkpt lat="45.69248" lon="-1.14902">
        <ele>13.539062</ele>
        <time>2014-02-12T14:40:44Z</time>
      </trkpt>
      <trkpt lat="45.69265" lon="-1.14917">
        <ele>12.558594</ele>
        <time>2014-02-12T14:40:59Z</time>
      </trkpt>
      <trkpt lat="45.69271" lon="-1.14938">
        <ele>11.871094</ele>
        <time>2014-02-12T14:41:15Z</time>
      </trkpt>
      <trkpt lat="45.69287" lon="-1.14949">
        <ele>11.300781</ele>
        <time>2014-02-12T14:41:53Z</time>
      </trkpt>
      <trkpt lat="45.69316" lon="-1.14954">
        <ele>10.652344</ele>
        <time>2014-02-12T14:42:19Z</time>
      </trkpt>
      <trkpt lat="45.6933" lon="-1.14966">
        <ele>10.851562</ele>
        <time>2014-02-12T14:42:32Z</time>
      </trkpt>
      <trkpt lat="45.69358" lon="-1.14977">
        <ele>13.460938</ele>
        <time>2014-02-12T14:42:42Z</time>
      </trkpt>
      <trkpt lat="45.69368" lon="-1.14988">
        <ele>14.648438</ele>
        <time>2014-02-12T14:42:51Z</time>
      </trkpt>
      <trkpt lat="45.69369" lon="-1.15004">
        <ele>14.527344</ele>
        <time>2014-02-12T14:43:00Z</time>
      </trkpt>
      <trkpt lat="45.69372" lon="-1.15021">
        <ele>14.539062</ele>
        <time>2014-02-12T14:43:13Z</time>
      </trkpt>
      <trkpt lat="45.69373" lon="-1.1504">
        <ele>14.3125</ele>
        <time>2014-02-12T14:43:25Z</time>
      </trkpt>
      <trkpt lat="45.69375" lon="-1.15056">
        <ele>14.304688</ele>
        <time>2014-02-12T14:43:33Z</time>
      </trkpt>
      <trkpt lat="45.6938" lon="-1.1507">
        <ele>14.367188</ele>
        <time>2014-02-12T14:43:42Z</time>
      </trkpt>
      <trkpt lat="45.69381" lon="-1.15087">
        <ele>14.136719</ele>
        <time>2014-02-12T14:43:53Z</time>
      </trkpt>
      <trkpt lat="45.69381" lon="-1.15105">
        <ele>13.828125</ele>
        <time>2014-02-12T14:44:05Z</time>
      </trkpt>
      <trkpt lat="45.69383" lon="-1.15122">
        <ele>13.523438</ele>
        <time>2014-02-12T14:44:15Z</time>
      </trkpt>
      <trkpt lat="45.69388" lon="-1.15129">
        <ele>13.214844</ele>
        <time>2014-02-12T14:44:26Z</time>
      </trkpt>
      <trkpt lat="45.69394" lon="-1.15117">
        <ele>13.199219</ele>
        <time>2014-02-12T14:44:37Z</time>
      </trkpt>
      <trkpt lat="45.69398" lon="-1.15103">
        <ele>13.328125</ele>
        <time>2014-02-12T14:44:47Z</time>
      </trkpt>
      <trkpt lat="45.69403" lon="-1.15083">
        <ele>13.753906</ele>
        <time>2014-02-12T14:44:59Z</time>
      </trkpt>
      <trkpt lat="45.69407" lon="-1.15066">
        <ele>14.386719</ele>
        <time>2014-02-12T14:45:10Z</time>
      </trkpt>
      <trkpt lat="45.69412" lon="-1.15051">
        <ele>15.054688</ele>
        <time>2014-02-12T14:45:20Z</time>
      </trkpt>
      <trkpt lat="45.69414" lon="-1.15036">
        <ele>15.753906</ele>
        <time>2014-02-12T14:45:30Z</time>
      </trkpt>
      <trkpt lat="45.69418" lon="-1.15019">
        <ele>16.515625</ele>
        <time>2014-02-12T14:45:42Z</time>
      </trkpt>
      <trkpt lat="45.69424" lon="-1.15002">
        <ele>17.496094</ele>
        <time>2014-02-12T14:45:52Z</time>
      </trkpt>
      <trkpt lat="45.69428" lon="-1.14988">
        <ele>18.3125</ele>
        <time>2014-02-12T14:46:01Z</time>
      </trkpt>
      <trkpt lat="45.69431" lon="-1.14973">
        <ele>18.355469</ele>
        <time>2014-02-12T14:46:11Z</time>
      </trkpt>
      <trkpt lat="45.69433" lon="-1.14957">
        <ele>18.101562</ele>
        <time>2014-02-12T14:46:21Z</time>
      </trkpt>
      <trkpt lat="45.69436" lon="-1.14942">
        <ele>18.039062</ele>
        <time>2014-02-12T14:46:32Z</time>
      </trkpt>
      <trkpt lat="45.69438" lon="-1.14927">
        <ele>18.121094</ele>
        <time>2014-02-12T14:46:44Z</time>
      </trkpt>
      <trkpt lat="45.69442" lon="-1.14912">
        <ele>18.570312</ele>
        <time>2014-02-12T14:46:54Z</time>
      </trkpt>
      <trkpt lat="45.69448" lon="-1.14899">
        <ele>18.835938</ele>
        <time>2014-02-12T14:47:05Z</time>
      </trkpt>
      <trkpt lat="45.69452" lon="-1.14882">
        <ele>19.089844</ele>
        <time>2014-02-12T14:47:14Z</time>
      </trkpt>
      <trkpt lat="45.69459" lon="-1.1487">
        <ele>18.9375</ele>
        <time>2014-02-12T14:47:23Z</time>
      </trkpt>
      <trkpt lat="45.69468" lon="-1.14866">
        <ele>18.445312</ele>
        <time>2014-02-12T14:47:32Z</time>
      </trkpt>
      <trkpt lat="45.69477" lon="-1.14862">
        <ele>17.96875</ele>
        <time>2014-02-12T14:47:43Z</time>
      </trkpt>
      <trkpt lat="45.69486" lon="-1.14858">
        <ele>17.4375</ele>
        <time>2014-02-12T14:47:55Z</time>
      </trkpt>
      <trkpt lat="45.69496" lon="-1.14855">
        <ele>16.710938</ele>
        <time>2014-02-12T14:48:04Z</time>
      </trkpt>
      <trkpt lat="45.69508" lon="-1.14852">
        <ele>15.4375</ele>
        <time>2014-02-12T14:48:14Z</time>
      </trkpt>
      <trkpt lat="45.69521" lon="-1.14849">
        <ele>14.042969</ele>
        <time>2014-02-12T14:48:23Z</time>
      </trkpt>
      <trkpt lat="45.69534" lon="-1.14844">
        <ele>12.597656</ele>
        <time>2014-02-12T14:48:32Z</time>
      </trkpt>
      <trkpt lat="45.69544" lon="-1.14841">
        <ele>11.550781</ele>
        <time>2014-02-12T14:48:41Z</time>
      </trkpt>
      <trkpt lat="45.69553" lon="-1.14836">
        <ele>10.917969</ele>
        <time>2014-02-12T14:48:53Z</time>
      </trkpt>
      <trkpt lat="45.69565" lon="-1.14832">
        <ele>10.640625</ele>
        <time>2014-02-12T14:49:03Z</time>
      </trkpt>
      <trkpt lat="45.69575" lon="-1.14827">
        <ele>10.472656</ele>
        <time>2014-02-12T14:49:15Z</time>
      </trkpt>
      <trkpt lat="45.69584" lon="-1.14822">
        <ele>10.332031</ele>
        <time>2014-02-12T14:49:24Z</time>
      </trkpt>
      <trkpt lat="45.69596" lon="-1.1482">
        <ele>10.148438</ele>
        <time>2014-02-12T14:49:32Z</time>
      </trkpt>
      <trkpt lat="45.69615" lon="-1.14819">
        <ele>10</ele>
        <time>2014-02-12T14:49:43Z</time>
      </trkpt>
      <trkpt lat="45.69624" lon="-1.14814">
        <ele>10</ele>
        <time>2014-02-12T14:49:54Z</time>
      </trkpt>
      <trkpt lat="45.69636" lon="-1.14813">
        <ele>10</ele>
        <time>2014-02-12T14:50:03Z</time>
      </trkpt>
      <trkpt lat="45.69648" lon="-1.14809">
        <ele>10</ele>
        <time>2014-02-12T14:50:13Z</time>
      </trkpt>
      <trkpt lat="45.69657" lon="-1.14805">
        <ele>10</ele>
        <time>2014-02-12T14:50:23Z</time>
      </trkpt>
      <trkpt lat="45.69669" lon="-1.148">
        <ele>9.847656</ele>
        <time>2014-02-12T14:50:32Z</time>
      </trkpt>
      <trkpt lat="45.69681" lon="-1.14796">
        <ele>9.632812</ele>
        <time>2014-02-12T14:50:42Z</time>
      </trkpt>
      <trkpt lat="45.69694" lon="-1.14791">
        <ele>9.386719</ele>
        <time>2014-02-12T14:50:54Z</time>
      </trkpt>
      <trkpt lat="45.69708" lon="-1.1479">
        <ele>9.132812</ele>
        <time>2014-02-12T14:51:05Z</time>
      </trkpt>
      <trkpt lat="45.69723" lon="-1.14785">
        <ele>9</ele>
        <time>2014-02-12T14:51:16Z</time>
      </trkpt>
      <trkpt lat="45.69732" lon="-1.14779">
        <ele>9</ele>
        <time>2014-02-12T14:51:29Z</time>
      </trkpt>
      <trkpt lat="45.69742" lon="-1.14775">
        <ele>9</ele>
        <time>2014-02-12T14:51:38Z</time>
      </trkpt>
      <trkpt lat="45.69756" lon="-1.14772">
        <ele>9</ele>
        <time>2014-02-12T14:51:48Z</time>
      </trkpt>
      <trkpt lat="45.69779" lon="-1.1477">
        <ele>9.132812</ele>
        <time>2014-02-12T14:52:01Z</time>
      </trkpt>
      <trkpt lat="45.69793" lon="-1.14766">
        <ele>9.390625</ele>
        <time>2014-02-12T14:52:13Z</time>
      </trkpt>
      <trkpt lat="45.69808" lon="-1.14761">
        <ele>9.683594</ele>
        <time>2014-02-12T14:52:28Z</time>
      </trkpt>
      <trkpt lat="45.69824" lon="-1.14757">
        <ele>9.960938</ele>
        <time>2014-02-12T14:52:40Z</time>
      </trkpt>
      <trkpt lat="45.69838" lon="-1.14751">
        <ele>9.953125</ele>
        <time>2014-02-12T14:52:52Z</time>
      </trkpt>
      <trkpt lat="45.69855" lon="-1.14748">
        <ele>9.855469</ele>
        <time>2014-02-12T14:53:06Z</time>
      </trkpt>
      <trkpt lat="45.69868" lon="-1.14747">
        <ele>9.773438</ele>
        <time>2014-02-12T14:53:15Z</time>
      </trkpt>
      <trkpt lat="45.6988" lon="-1.1474">
        <ele>9.597656</ele>
        <time>2014-02-12T14:53:25Z</time>
      </trkpt>
      <trkpt lat="45.6989" lon="-1.14734">
        <ele>9.277344</ele>
        <time>2014-02-12T14:53:36Z</time>
      </trkpt>
      <trkpt lat="45.69901" lon="-1.1473">
        <ele>8.925781</ele>
        <time>2014-02-12T14:53:47Z</time>
      </trkpt>
      <trkpt lat="45.69912" lon="-1.14726">
        <ele>8.613281</ele>
        <time>2014-02-12T14:53:57Z</time>
      </trkpt>
      <trkpt lat="45.69926" lon="-1.14721">
        <ele>8.269531</ele>
        <time>2014-02-12T14:54:08Z</time>
      </trkpt>
      <trkpt lat="45.69937" lon="-1.14718">
        <ele>8.019531</ele>
        <time>2014-02-12T14:54:16Z</time>
      </trkpt>
      <trkpt lat="45.69947" lon="-1.14715">
        <ele>7.839844</ele>
        <time>2014-02-12T14:54:25Z</time>
      </trkpt>
      <trkpt lat="45.69961" lon="-1.14711">
        <ele>7.585938</ele>
        <time>2014-02-12T14:54:35Z</time>
      </trkpt>
      <trkpt lat="45.69977" lon="-1.14706">
        <ele>7.285156</ele>
        <time>2014-02-12T14:54:47Z</time>
      </trkpt>
      <trkpt lat="45.69989" lon="-1.14702">
        <ele>7.070312</ele>
        <time>2014-02-12T14:54:58Z</time>
      </trkpt>
      <trkpt lat="45.70001" lon="-1.14695">
        <ele>7.164062</ele>
        <time>2014-02-12T14:55:10Z</time>
      </trkpt>
      <trkpt lat="45.70012" lon="-1.14688">
        <ele>7.449219</ele>
        <time>2014-02-12T14:55:20Z</time>
      </trkpt>
      <trkpt lat="45.70024" lon="-1.14685">
        <ele>7.785156</ele>
        <time>2014-02-12T14:55:30Z</time>
      </trkpt>
      <trkpt lat="45.70023" lon="-1.1466">
        <ele>7.984375</ele>
        <time>2014-02-12T14:55:42Z</time>
      </trkpt>
      <trkpt lat="45.70022" lon="-1.14647">
        <ele>8.183594</ele>
        <time>2014-02-12T14:55:51Z</time>
      </trkpt>
      <trkpt lat="45.7002" lon="-1.14629">
        <ele>8.589844</ele>
        <time>2014-02-12T14:56:02Z</time>
      </trkpt>
      <trkpt lat="45.70017" lon="-1.14611">
        <ele>9.011719</ele>
        <time>2014-02-12T14:56:12Z</time>
      </trkpt>
      <trkpt lat="45.70015" lon="-1.14594">
        <ele>9.335938</ele>
        <time>2014-02-12T14:56:22Z</time>
      </trkpt>
      <trkpt lat="45.70013" lon="-1.14579">
        <ele>9.03125</ele>
        <time>2014-02-12T14:56:32Z</time>
      </trkpt>
      <trkpt lat="45.70012" lon="-1.14564">
        <ele>8.734375</ele>
        <time>2014-02-12T14:56:42Z</time>
      </trkpt>
      <trkpt lat="45.70009" lon="-1.14547">
        <ele>8.378906</ele>
        <time>2014-02-12T14:56:54Z</time>
      </trkpt>
      <trkpt lat="45.70006" lon="-1.14524">
        <ele>8.222656</ele>
        <time>2014-02-12T14:57:03Z</time>
      </trkpt>
      <trkpt lat="45.70017" lon="-1.14517">
        <ele>8.425781</ele>
        <time>2014-02-12T14:57:14Z</time>
      </trkpt>
      <trkpt lat="45.70032" lon="-1.14513">
        <ele>8.6875</ele>
        <time>2014-02-12T14:57:25Z</time>
      </trkpt>
      <trkpt lat="45.70044" lon="-1.14511">
        <ele>8.910156</ele>
        <time>2014-02-12T14:57:35Z</time>
      </trkpt>
      <trkpt lat="45.70057" lon="-1.14508">
        <ele>9</ele>
        <time>2014-02-12T14:57:46Z</time>
      </trkpt>
      <trkpt lat="45.70068" lon="-1.14505">
        <ele>9</ele>
        <time>2014-02-12T14:57:55Z</time>
      </trkpt>
      <trkpt lat="45.70079" lon="-1.14502">
        <ele>9</ele>
        <time>2014-02-12T14:58:06Z</time>
      </trkpt>
      <trkpt lat="45.70091" lon="-1.14497">
        <ele>9</ele>
        <time>2014-02-12T14:58:18Z</time>
      </trkpt>
      <trkpt lat="45.70106" lon="-1.14495">
        <ele>8.976562</ele>
        <time>2014-02-12T14:58:28Z</time>
      </trkpt>
      <trkpt lat="45.70115" lon="-1.14492">
        <ele>8.800781</ele>
        <time>2014-02-12T14:58:36Z</time>
      </trkpt>
      <trkpt lat="45.70126" lon="-1.14487">
        <ele>8.605469</ele>
        <time>2014-02-12T14:58:46Z</time>
      </trkpt>
      <trkpt lat="45.70136" lon="-1.14482">
        <ele>8.425781</ele>
        <time>2014-02-12T14:58:58Z</time>
      </trkpt>
      <trkpt lat="45.70144" lon="-1.14477">
        <ele>8.28125</ele>
        <time>2014-02-12T14:59:10Z</time>
      </trkpt>
      <trkpt lat="45.70154" lon="-1.14472">
        <ele>8.101562</ele>
        <time>2014-02-12T14:59:22Z</time>
      </trkpt>
      <trkpt lat="45.70162" lon="-1.14465">
        <ele>7.945312</ele>
        <time>2014-02-12T14:59:35Z</time>
      </trkpt>
      <trkpt lat="45.70175" lon="-1.1446">
        <ele>7.710938</ele>
        <time>2014-02-12T14:59:50Z</time>
      </trkpt>
      <trkpt lat="45.7019" lon="-1.14455">
        <ele>7.519531</ele>
        <time>2014-02-12T15:00:05Z</time>
      </trkpt>
      <trkpt lat="45.70203" lon="-1.14453">
        <ele>7.371094</ele>
        <time>2014-02-12T15:00:13Z</time>
      </trkpt>
      <trkpt lat="45.70214" lon="-1.14451">
        <ele>7.285156</ele>
        <time>2014-02-12T15:00:21Z</time>
      </trkpt>
      <trkpt lat="45.70227" lon="-1.14447">
        <ele>7.414062</ele>
        <time>2014-02-12T15:00:31Z</time>
      </trkpt>
      <trkpt lat="45.70239" lon="-1.14442">
        <ele>7.566406</ele>
        <time>2014-02-12T15:00:42Z</time>
      </trkpt>
      <trkpt lat="45.70253" lon="-1.14436">
        <ele>7.78125</ele>
        <time>2014-02-12T15:00:54Z</time>
      </trkpt>
      <trkpt lat="45.70264" lon="-1.14434">
        <ele>7.867188</ele>
        <time>2014-02-12T15:01:02Z</time>
      </trkpt>
      <trkpt lat="45.70275" lon="-1.14433">
        <ele>7.90625</ele>
        <time>2014-02-12T15:01:10Z</time>
      </trkpt>
      <trkpt lat="45.70288" lon="-1.14429">
        <ele>8.011719</ele>
        <time>2014-02-12T15:01:21Z</time>
      </trkpt>
      <trkpt lat="45.70301" lon="-1.14427">
        <ele>8.023438</ele>
        <time>2014-02-12T15:01:32Z</time>
      </trkpt>
      <trkpt lat="45.70314" lon="-1.14424">
        <ele>8.023438</ele>
        <time>2014-02-12T15:01:41Z</time>
      </trkpt>
      <trkpt lat="45.70328" lon="-1.14419">
        <ele>8</ele>
        <time>2014-02-12T15:01:52Z</time>
      </trkpt>
      <trkpt lat="45.70355" lon="-1.1442">
        <ele>8</ele>
        <time>2014-02-12T15:02:01Z</time>
      </trkpt>
      <trkpt lat="45.70376" lon="-1.14418">
        <ele>8</ele>
        <time>2014-02-12T15:02:12Z</time>
      </trkpt>
      <trkpt lat="45.70392" lon="-1.14413">
        <ele>8</ele>
        <time>2014-02-12T15:02:25Z</time>
      </trkpt>
      <trkpt lat="45.70404" lon="-1.14408">
        <ele>8</ele>
        <time>2014-02-12T15:02:36Z</time>
      </trkpt>
      <trkpt lat="45.70418" lon="-1.14404">
        <ele>8</ele>
        <time>2014-02-12T15:02:47Z</time>
      </trkpt>
      <trkpt lat="45.70427" lon="-1.14398">
        <ele>8</ele>
        <time>2014-02-12T15:02:57Z</time>
      </trkpt>
      <trkpt lat="45.7044" lon="-1.14395">
        <ele>8</ele>
        <time>2014-02-12T15:03:06Z</time>
      </trkpt>
      <trkpt lat="45.70456" lon="-1.14388">
        <ele>8</ele>
        <time>2014-02-12T15:03:18Z</time>
      </trkpt>
      <trkpt lat="45.70466" lon="-1.14385">
        <ele>8</ele>
        <time>2014-02-12T15:03:27Z</time>
      </trkpt>
      <trkpt lat="45.70481" lon="-1.14382">
        <ele>8</ele>
        <time>2014-02-12T15:03:38Z</time>
      </trkpt>
      <trkpt lat="45.70492" lon="-1.14379">
        <ele>8</ele>
        <time>2014-02-12T15:03:47Z</time>
      </trkpt>
      <trkpt lat="45.70506" lon="-1.14376">
        <ele>7.773438</ele>
        <time>2014-02-12T15:04:00Z</time>
      </trkpt>
      <trkpt lat="45.7052" lon="-1.14371">
        <ele>7.480469</ele>
        <time>2014-02-12T15:04:12Z</time>
      </trkpt>
      <trkpt lat="45.70539" lon="-1.14369">
        <ele>7.082031</ele>
        <time>2014-02-12T15:04:27Z</time>
      </trkpt>
      <trkpt lat="45.70554" lon="-1.14366">
        <ele>6.667969</ele>
        <time>2014-02-12T15:04:38Z</time>
      </trkpt>
      <trkpt lat="45.70563" lon="-1.14357">
        <ele>6.238281</ele>
        <time>2014-02-12T15:04:47Z</time>
      </trkpt>
      <trkpt lat="45.70566" lon="-1.14344">
        <ele>5.996094</ele>
        <time>2014-02-12T15:04:55Z</time>
      </trkpt>
      <trkpt lat="45.70564" lon="-1.14329">
        <ele>5.851562</ele>
        <time>2014-02-12T15:05:04Z</time>
      </trkpt>
      <trkpt lat="45.70563" lon="-1.14313">
        <ele>5.710938</ele>
        <time>2014-02-12T15:05:11Z</time>
      </trkpt>
      <trkpt lat="45.70562" lon="-1.14299">
        <ele>5.679688</ele>
        <time>2014-02-12T15:05:18Z</time>
      </trkpt>
      <trkpt lat="45.7056" lon="-1.14286">
        <ele>5.65625</ele>
        <time>2014-02-12T15:05:25Z</time>
      </trkpt>
      <trkpt lat="45.70559" lon="-1.14273">
        <ele>5.644531</ele>
        <time>2014-02-12T15:05:33Z</time>
      </trkpt>
      <trkpt lat="45.70563" lon="-1.14261">
        <ele>5.378906</ele>
        <time>2014-02-12T15:05:43Z</time>
      </trkpt>
      <trkpt lat="45.70573" lon="-1.14258">
        <ele>4.945312</ele>
        <time>2014-02-12T15:06:09Z</time>
      </trkpt>
      <trkpt lat="45.70585" lon="-1.14265">
        <ele>4.691406</ele>
        <time>2014-02-12T15:06:17Z</time>
      </trkpt>
      <trkpt lat="45.70596" lon="-1.14275">
        <ele>4.457031</ele>
        <time>2014-02-12T15:06:25Z</time>
      </trkpt>
      <trkpt lat="45.70607" lon="-1.14279">
        <ele>4.210938</ele>
        <time>2014-02-12T15:06:33Z</time>
      </trkpt>
      <trkpt lat="45.70617" lon="-1.14282">
        <ele>4.007812</ele>
        <time>2014-02-12T15:06:42Z</time>
      </trkpt>
      <trkpt lat="45.70626" lon="-1.14282">
        <ele>3.796875</ele>
        <time>2014-02-12T15:06:52Z</time>
      </trkpt>
      <trkpt lat="45.70634" lon="-1.14284">
        <ele>3.625</ele>
        <time>2014-02-12T15:07:47Z</time>
      </trkpt>
      <trkpt lat="45.70637" lon="-1.143">
        <ele>3.664062</ele>
        <time>2014-02-12T15:07:58Z</time>
      </trkpt>
      <trkpt lat="45.70637" lon="-1.14319">
        <ele>3.820312</ele>
        <time>2014-02-12T15:08:08Z</time>
      </trkpt>
      <trkpt lat="45.70635" lon="-1.14338">
        <ele>3.691406</ele>
        <time>2014-02-12T15:08:20Z</time>
      </trkpt>
      <trkpt lat="45.70634" lon="-1.14365">
        <ele>3.492188</ele>
        <time>2014-02-12T15:08:34Z</time>
      </trkpt>
      <trkpt lat="45.70637" lon="-1.14389">
        <ele>3.761719</ele>
        <time>2014-02-12T15:08:49Z</time>
      </trkpt>
      <trkpt lat="45.70639" lon="-1.1441">
        <ele>4.371094</ele>
        <time>2014-02-12T15:09:01Z</time>
      </trkpt>
      <trkpt lat="45.70638" lon="-1.14428">
        <ele>5.066406</ele>
        <time>2014-02-12T15:09:11Z</time>
      </trkpt>
      <trkpt lat="45.70638" lon="-1.14445">
        <ele>5.769531</ele>
        <time>2014-02-12T15:09:21Z</time>
      </trkpt>
      <trkpt lat="45.70634" lon="-1.14463">
        <ele>6.578125</ele>
        <time>2014-02-12T15:09:30Z</time>
      </trkpt>
      <trkpt lat="45.70633" lon="-1.14479">
        <ele>7.234375</ele>
        <time>2014-02-12T15:09:39Z</time>
      </trkpt>
      <trkpt lat="45.70634" lon="-1.14496">
        <ele>7.558594</ele>
        <time>2014-02-12T15:09:48Z</time>
      </trkpt>
      <trkpt lat="45.70635" lon="-1.14513">
        <ele>7.71875</ele>
        <time>2014-02-12T15:09:57Z</time>
      </trkpt>
      <trkpt lat="45.70638" lon="-1.14529">
        <ele>7.859375</ele>
        <time>2014-02-12T15:10:06Z</time>
      </trkpt>
      <trkpt lat="45.70642" lon="-1.14543">
        <ele>8.039062</ele>
        <time>2014-02-12T15:10:15Z</time>
      </trkpt>
      <trkpt lat="45.70644" lon="-1.1456">
        <ele>8.578125</ele>
        <time>2014-02-12T15:10:25Z</time>
      </trkpt>
      <trkpt lat="45.70648" lon="-1.14576">
        <ele>9.136719</ele>
        <time>2014-02-12T15:10:35Z</time>
      </trkpt>
      <trkpt lat="45.70652" lon="-1.14594">
        <ele>9.757812</ele>
        <time>2014-02-12T15:10:45Z</time>
      </trkpt>
      <trkpt lat="45.70653" lon="-1.14612">
        <ele>9.890625</ele>
        <time>2014-02-12T15:10:54Z</time>
      </trkpt>
      <trkpt lat="45.70658" lon="-1.14626">
        <ele>9.980469</ele>
        <time>2014-02-12T15:11:04Z</time>
      </trkpt>
      <trkpt lat="45.70665" lon="-1.14641">
        <ele>9.796875</ele>
        <time>2014-02-12T15:11:14Z</time>
      </trkpt>
      <trkpt lat="45.7067" lon="-1.14654">
        <ele>9.625</ele>
        <time>2014-02-12T15:11:23Z</time>
      </trkpt>
      <trkpt lat="45.70694" lon="-1.14781">
        <ele>9.578125</ele>
        <time>2014-02-12T15:12:37Z</time>
      </trkpt>
      <trkpt lat="45.70695" lon="-1.14796">
        <ele>9.738281</ele>
        <time>2014-02-12T15:12:46Z</time>
      </trkpt>
      <trkpt lat="45.70699" lon="-1.1481">
        <ele>9.886719</ele>
        <time>2014-02-12T15:12:56Z</time>
      </trkpt>
      <trkpt lat="45.707" lon="-1.14825">
        <ele>10</ele>
        <time>2014-02-12T15:13:05Z</time>
      </trkpt>
      <trkpt lat="45.707" lon="-1.14841">
        <ele>10</ele>
        <time>2014-02-12T15:13:15Z</time>
      </trkpt>
      <trkpt lat="45.70699" lon="-1.14859">
        <ele>10</ele>
        <time>2014-02-12T15:13:24Z</time>
      </trkpt>
      <trkpt lat="45.70697" lon="-1.14879">
        <ele>10.03125</ele>
        <time>2014-02-12T15:13:34Z</time>
      </trkpt>
      <trkpt lat="45.707" lon="-1.14895">
        <ele>10.175781</ele>
        <time>2014-02-12T15:13:44Z</time>
      </trkpt>
      <trkpt lat="45.70699" lon="-1.14916">
        <ele>10.320312</ele>
        <time>2014-02-12T15:13:55Z</time>
      </trkpt>
      <trkpt lat="45.70698" lon="-1.14935">
        <ele>10.324219</ele>
        <time>2014-02-12T15:14:07Z</time>
      </trkpt>
      <trkpt lat="45.70702" lon="-1.14959">
        <ele>10.144531</ele>
        <time>2014-02-12T15:14:21Z</time>
      </trkpt>
      <trkpt lat="45.70701" lon="-1.14991">
        <ele>9.640625</ele>
        <time>2014-02-12T15:14:43Z</time>
      </trkpt>
      <trkpt lat="45.70706" lon="-1.15031">
        <ele>9.019531</ele>
        <time>2014-02-12T15:15:03Z</time>
      </trkpt>
      <trkpt lat="45.70707" lon="-1.15065">
        <ele>8.789062</ele>
        <time>2014-02-12T15:15:24Z</time>
      </trkpt>
      <trkpt lat="45.70707" lon="-1.15096">
        <ele>8.722656</ele>
        <time>2014-02-12T15:15:40Z</time>
      </trkpt>
      <trkpt lat="45.70708" lon="-1.15123">
        <ele>8.761719</ele>
        <time>2014-02-12T15:15:54Z</time>
      </trkpt>
      <trkpt lat="45.70709" lon="-1.1515">
        <ele>8.765625</ele>
        <time>2014-02-12T15:16:09Z</time>
      </trkpt>
      <trkpt lat="45.70709" lon="-1.15174">
        <ele>8.429688</ele>
        <time>2014-02-12T15:16:22Z</time>
      </trkpt>
      <trkpt lat="45.70711" lon="-1.15195">
        <ele>8.136719</ele>
        <time>2014-02-12T15:16:35Z</time>
      </trkpt>
      <trkpt lat="45.70708" lon="-1.15226">
        <ele>7.878906</ele>
        <time>2014-02-12T15:16:49Z</time>
      </trkpt>
      <trkpt lat="45.70714" lon="-1.15287">
        <ele>7.984375</ele>
        <time>2014-02-12T15:17:27Z</time>
      </trkpt>
      <trkpt lat="45.70715" lon="-1.15319">
        <ele>7.996094</ele>
        <time>2014-02-12T15:17:47Z</time>
      </trkpt>
      <trkpt lat="45.70716" lon="-1.15345">
        <ele>7.992188</ele>
        <time>2014-02-12T15:18:01Z</time>
      </trkpt>
      <trkpt lat="45.70715" lon="-1.15374">
        <ele>7.996094</ele>
        <time>2014-02-12T15:18:15Z</time>
      </trkpt>
      <trkpt lat="45.70723" lon="-1.15393">
        <ele>7.570312</ele>
        <time>2014-02-12T15:18:28Z</time>
      </trkpt>
      <trkpt lat="45.70731" lon="-1.15409">
        <ele>7.265625</ele>
        <time>2014-02-12T15:18:41Z</time>
      </trkpt>
      <trkpt lat="45.70741" lon="-1.15423">
        <ele>7.066406</ele>
        <time>2014-02-12T15:18:53Z</time>
      </trkpt>
      <trkpt lat="45.70752" lon="-1.15437">
        <ele>7</ele>
        <time>2014-02-12T15:19:05Z</time>
      </trkpt>
      <trkpt lat="45.70761" lon="-1.15451">
        <ele>7</ele>
        <time>2014-02-12T15:19:14Z</time>
      </trkpt>
      <trkpt lat="45.70769" lon="-1.15465">
        <ele>7</ele>
        <time>2014-02-12T15:19:26Z</time>
      </trkpt>
      <trkpt lat="45.70776" lon="-1.15477">
        <ele>7.101562</ele>
        <time>2014-02-12T15:19:36Z</time>
      </trkpt>
      <trkpt lat="45.70785" lon="-1.15489">
        <ele>7.261719</ele>
        <time>2014-02-12T15:19:45Z</time>
      </trkpt>
      <trkpt lat="45.70794" lon="-1.15503">
        <ele>7.425781</ele>
        <time>2014-02-12T15:19:55Z</time>
      </trkpt>
      <trkpt lat="45.70804" lon="-1.15519">
        <ele>7.597656</ele>
        <time>2014-02-12T15:20:07Z</time>
      </trkpt>
      <trkpt lat="45.70817" lon="-1.15535">
        <ele>7.835938</ele>
        <time>2014-02-12T15:20:19Z</time>
      </trkpt>
      <trkpt lat="45.70828" lon="-1.15547">
        <ele>8</ele>
        <time>2014-02-12T15:20:30Z</time>
      </trkpt>
      <trkpt lat="45.70837" lon="-1.1556">
        <ele>8</ele>
        <time>2014-02-12T15:20:42Z</time>
      </trkpt>
      <trkpt lat="45.70847" lon="-1.15574">
        <ele>8</ele>
        <time>2014-02-12T15:20:54Z</time>
      </trkpt>
      <trkpt lat="45.70857" lon="-1.15586">
        <ele>8</ele>
        <time>2014-02-12T15:21:03Z</time>
      </trkpt>
      <trkpt lat="45.70866" lon="-1.15598">
        <ele>8</ele>
        <time>2014-02-12T15:21:11Z</time>
      </trkpt>
      <trkpt lat="45.70875" lon="-1.15609">
        <ele>8</ele>
        <time>2014-02-12T15:21:21Z</time>
      </trkpt>
      <trkpt lat="45.70884" lon="-1.1562">
        <ele>7.980469</ele>
        <time>2014-02-12T15:21:30Z</time>
      </trkpt>
      <trkpt lat="45.70894" lon="-1.1563">
        <ele>7.863281</ele>
        <time>2014-02-12T15:21:39Z</time>
      </trkpt>
      <trkpt lat="45.70902" lon="-1.1564">
        <ele>7.703125</ele>
        <time>2014-02-12T15:21:48Z</time>
      </trkpt>
      <trkpt lat="45.70911" lon="-1.15647">
        <ele>7.511719</ele>
        <time>2014-02-12T15:21:58Z</time>
      </trkpt>
      <trkpt lat="45.70919" lon="-1.15659">
        <ele>7.367188</ele>
        <time>2014-02-12T15:22:07Z</time>
      </trkpt>
      <trkpt lat="45.70928" lon="-1.15668">
        <ele>7.359375</ele>
        <time>2014-02-12T15:22:17Z</time>
      </trkpt>
      <trkpt lat="45.70976" lon="-1.15729">
        <ele>8.625</ele>
        <time>2014-02-12T15:23:08Z</time>
      </trkpt>
      <trkpt lat="45.71016" lon="-1.15778">
        <ele>8.449219</ele>
        <time>2014-02-12T15:23:55Z</time>
      </trkpt>
      <trkpt lat="45.71028" lon="-1.15792">
        <ele>8.3125</ele>
        <time>2014-02-12T15:24:06Z</time>
      </trkpt>
      <trkpt lat="45.71062" lon="-1.15831">
        <ele>7.613281</ele>
        <time>2014-02-12T15:24:56Z</time>
      </trkpt>
      <trkpt lat="45.7107" lon="-1.15841">
        <ele>7.476562</ele>
        <time>2014-02-12T15:25:11Z</time>
      </trkpt>
      <trkpt lat="45.71086" lon="-1.15864">
        <ele>7.128906</ele>
        <time>2014-02-12T15:25:21Z</time>
      </trkpt>
      <trkpt lat="45.71099" lon="-1.15891">
        <ele>7.011719</ele>
        <time>2014-02-12T15:25:31Z</time>
      </trkpt>
      <trkpt lat="45.71108" lon="-1.15913">
        <ele>7.167969</ele>
        <time>2014-02-12T15:25:46Z</time>
      </trkpt>
      <trkpt lat="45.71113" lon="-1.15927">
        <ele>7.273438</ele>
        <time>2014-02-12T15:26:51Z</time>
      </trkpt>
      <trkpt lat="45.711" lon="-1.15921">
        <ele>8.058594</ele>
        <time>2014-02-12T15:29:48Z</time>
      </trkpt>
      <trkpt lat="45.71089" lon="-1.15918">
        <ele>8.917969</ele>
        <time>2014-02-12T15:29:59Z</time>
      </trkpt>
      <trkpt lat="45.7108" lon="-1.15914">
        <ele>9.589844</ele>
        <time>2014-02-12T15:30:09Z</time>
      </trkpt>
      <trkpt lat="45.7107" lon="-1.15913">
        <ele>10.460938</ele>
        <time>2014-02-12T15:30:19Z</time>
      </trkpt>
      <trkpt lat="45.7106" lon="-1.15912">
        <ele>11.332031</ele>
        <time>2014-02-12T15:30:28Z</time>
      </trkpt>
      <trkpt lat="45.71049" lon="-1.15908">
        <ele>12.1875</ele>
        <time>2014-02-12T15:30:39Z</time>
      </trkpt>
      <trkpt lat="45.71036" lon="-1.15906">
        <ele>12.574219</ele>
        <time>2014-02-12T15:30:53Z</time>
      </trkpt>
      <trkpt lat="45.71024" lon="-1.15905">
        <ele>12.945312</ele>
        <time>2014-02-12T15:31:04Z</time>
      </trkpt>
      <trkpt lat="45.71012" lon="-1.15904">
        <ele>13.339844</ele>
        <time>2014-02-12T15:31:16Z</time>
      </trkpt>
      <trkpt lat="45.71" lon="-1.15906">
        <ele>13.773438</ele>
        <time>2014-02-12T15:31:29Z</time>
      </trkpt>
      <trkpt lat="45.70985" lon="-1.15911">
        <ele>13.902344</ele>
        <time>2014-02-12T15:31:39Z</time>
      </trkpt>
      <trkpt lat="45.70974" lon="-1.15914">
        <ele>13.757812</ele>
        <time>2014-02-12T15:31:48Z</time>
      </trkpt>
      <trkpt lat="45.70964" lon="-1.1592">
        <ele>13.566406</ele>
        <time>2014-02-12T15:31:58Z</time>
      </trkpt>
      <trkpt lat="45.70951" lon="-1.15924">
        <ele>13.328125</ele>
        <time>2014-02-12T15:32:08Z</time>
      </trkpt>
      <trkpt lat="45.70941" lon="-1.15929">
        <ele>13.070312</ele>
        <time>2014-02-12T15:32:18Z</time>
      </trkpt>
      <trkpt lat="45.70931" lon="-1.15936">
        <ele>12.566406</ele>
        <time>2014-02-12T15:32:27Z</time>
      </trkpt>
      <trkpt lat="45.7092" lon="-1.15942">
        <ele>11.917969</ele>
        <time>2014-02-12T15:32:37Z</time>
      </trkpt>
      <trkpt lat="45.70907" lon="-1.15952">
        <ele>11.183594</ele>
        <time>2014-02-12T15:32:49Z</time>
      </trkpt>
      <trkpt lat="45.70891" lon="-1.15967">
        <ele>10.394531</ele>
        <time>2014-02-12T15:33:02Z</time>
      </trkpt>
      <trkpt lat="45.70879" lon="-1.1598">
        <ele>10.066406</ele>
        <time>2014-02-12T15:33:17Z</time>
      </trkpt>
      <trkpt lat="45.70867" lon="-1.15996">
        <ele>10.160156</ele>
        <time>2014-02-12T15:33:32Z</time>
      </trkpt>
      <trkpt lat="45.70857" lon="-1.16013">
        <ele>9.988281</ele>
        <time>2014-02-12T15:33:50Z</time>
      </trkpt>
      <trkpt lat="45.70842" lon="-1.16037">
        <ele>9.367188</ele>
        <time>2014-02-12T15:34:01Z</time>
      </trkpt>
      <trkpt lat="45.7083" lon="-1.16057">
        <ele>8.769531</ele>
        <time>2014-02-12T15:34:13Z</time>
      </trkpt>
      <trkpt lat="45.70824" lon="-1.16068">
        <ele>8.515625</ele>
        <time>2014-02-12T15:34:21Z</time>
      </trkpt>
      <trkpt lat="45.70818" lon="-1.1608">
        <ele>8.332031</ele>
        <time>2014-02-12T15:34:30Z</time>
      </trkpt>
      <trkpt lat="45.70811" lon="-1.16092">
        <ele>8.09375</ele>
        <time>2014-02-12T15:34:41Z</time>
      </trkpt>
      <trkpt lat="45.70802" lon="-1.16106">
        <ele>8</ele>
        <time>2014-02-12T15:34:52Z</time>
      </trkpt>
      <trkpt lat="45.70793" lon="-1.16123">
        <ele>8</ele>
        <time>2014-02-12T15:35:01Z</time>
      </trkpt>
      <trkpt lat="45.70785" lon="-1.16141">
        <ele>8</ele>
        <time>2014-02-12T15:35:12Z</time>
      </trkpt>
      <trkpt lat="45.70777" lon="-1.16158">
        <ele>8</ele>
        <time>2014-02-12T15:35:22Z</time>
      </trkpt>
      <trkpt lat="45.7077" lon="-1.1617">
        <ele>8</ele>
        <time>2014-02-12T15:35:32Z</time>
      </trkpt>
      <trkpt lat="45.70761" lon="-1.16185">
        <ele>8</ele>
        <time>2014-02-12T15:35:44Z</time>
      </trkpt>
      <trkpt lat="45.70753" lon="-1.162">
        <ele>8</ele>
        <time>2014-02-12T15:35:55Z</time>
      </trkpt>
      <trkpt lat="45.70742" lon="-1.16216">
        <ele>8</ele>
        <time>2014-02-12T15:36:08Z</time>
      </trkpt>
      <trkpt lat="45.7073" lon="-1.16236">
        <ele>8</ele>
        <time>2014-02-12T15:36:23Z</time>
      </trkpt>
      <trkpt lat="45.70719" lon="-1.16253">
        <ele>8</ele>
        <time>2014-02-12T15:36:38Z</time>
      </trkpt>
      <trkpt lat="45.70711" lon="-1.16265">
        <ele>8.226562</ele>
        <time>2014-02-12T15:36:49Z</time>
      </trkpt>
      <trkpt lat="45.707" lon="-1.16278">
        <ele>8.8125</ele>
        <time>2014-02-12T15:37:01Z</time>
      </trkpt>
      <trkpt lat="45.7069" lon="-1.16291">
        <ele>9.34375</ele>
        <time>2014-02-12T15:37:10Z</time>
      </trkpt>
      <trkpt lat="45.7068" lon="-1.16304">
        <ele>9.90625</ele>
        <time>2014-02-12T15:37:21Z</time>
      </trkpt>
      <trkpt lat="45.70672" lon="-1.16315">
        <ele>10.355469</ele>
        <time>2014-02-12T15:37:31Z</time>
      </trkpt>
      <trkpt lat="45.70663" lon="-1.16327">
        <ele>10.835938</ele>
        <time>2014-02-12T15:37:42Z</time>
      </trkpt>
      <trkpt lat="45.70653" lon="-1.16339">
        <ele>11.070312</ele>
        <time>2014-02-12T15:37:53Z</time>
      </trkpt>
      <trkpt lat="45.70643" lon="-1.16353">
        <ele>11.113281</ele>
        <time>2014-02-12T15:38:02Z</time>
      </trkpt>
      <trkpt lat="45.70634" lon="-1.16363">
        <ele>11.085938</ele>
        <time>2014-02-12T15:38:11Z</time>
      </trkpt>
      <trkpt lat="45.70627" lon="-1.16374">
        <ele>10.996094</ele>
        <time>2014-02-12T15:38:20Z</time>
      </trkpt>
      <trkpt lat="45.70618" lon="-1.16384">
        <ele>10.851562</ele>
        <time>2014-02-12T15:38:29Z</time>
      </trkpt>
      <trkpt lat="45.7061" lon="-1.16397">
        <ele>10.625</ele>
        <time>2014-02-12T15:38:39Z</time>
      </trkpt>
      <trkpt lat="45.70601" lon="-1.16407">
        <ele>10.09375</ele>
        <time>2014-02-12T15:38:48Z</time>
      </trkpt>
      <trkpt lat="45.70591" lon="-1.16418">
        <ele>9.011719</ele>
        <time>2014-02-12T15:38:58Z</time>
      </trkpt>
      <trkpt lat="45.70581" lon="-1.16431">
        <ele>7.953125</ele>
        <time>2014-02-12T15:39:08Z</time>
      </trkpt>
      <trkpt lat="45.70569" lon="-1.16445">
        <ele>7.125</ele>
        <time>2014-02-12T15:39:20Z</time>
      </trkpt>
      <trkpt lat="45.70558" lon="-1.16458">
        <ele>6.640625</ele>
        <time>2014-02-12T15:39:33Z</time>
      </trkpt>
      <trkpt lat="45.70548" lon="-1.1647">
        <ele>6.488281</ele>
        <time>2014-02-12T15:39:42Z</time>
      </trkpt>
      <trkpt lat="45.7054" lon="-1.16481">
        <ele>7.625</ele>
        <time>2014-02-12T15:39:51Z</time>
      </trkpt>
      <trkpt lat="45.7053" lon="-1.16492">
        <ele>9.207031</ele>
        <time>2014-02-12T15:40:01Z</time>
      </trkpt>
      <trkpt lat="45.70522" lon="-1.16503">
        <ele>10.566406</ele>
        <time>2014-02-12T15:40:10Z</time>
      </trkpt>
      <trkpt lat="45.70514" lon="-1.16513">
        <ele>11.890625</ele>
        <time>2014-02-12T15:40:19Z</time>
      </trkpt>
      <trkpt lat="45.70502" lon="-1.16527">
        <ele>13.597656</ele>
        <time>2014-02-12T15:40:31Z</time>
      </trkpt>
      <trkpt lat="45.70492" lon="-1.1654">
        <ele>14.917969</ele>
        <time>2014-02-12T15:40:41Z</time>
      </trkpt>
      <trkpt lat="45.70482" lon="-1.16551">
        <ele>14.121094</ele>
        <time>2014-02-12T15:40:51Z</time>
      </trkpt>
      <trkpt lat="45.70473" lon="-1.1656">
        <ele>13.265625</ele>
        <time>2014-02-12T15:41:00Z</time>
      </trkpt>
      <trkpt lat="45.70464" lon="-1.16572">
        <ele>12.191406</ele>
        <time>2014-02-12T15:41:10Z</time>
      </trkpt>
      <trkpt lat="45.70456" lon="-1.16582">
        <ele>11.160156</ele>
        <time>2014-02-12T15:41:18Z</time>
      </trkpt>
      <trkpt lat="45.70447" lon="-1.16593">
        <ele>9.914062</ele>
        <time>2014-02-12T15:41:27Z</time>
      </trkpt>
      <trkpt lat="45.70436" lon="-1.16606">
        <ele>8.773438</ele>
        <time>2014-02-12T15:41:41Z</time>
      </trkpt>
      <trkpt lat="45.70423" lon="-1.16622">
        <ele>8.144531</ele>
        <time>2014-02-12T15:41:53Z</time>
      </trkpt>
      <trkpt lat="45.70414" lon="-1.16633">
        <ele>7.617188</ele>
        <time>2014-02-12T15:42:03Z</time>
      </trkpt>
      <trkpt lat="45.70405" lon="-1.16644">
        <ele>7.015625</ele>
        <time>2014-02-12T15:42:12Z</time>
      </trkpt>
      <trkpt lat="45.70396" lon="-1.16654">
        <ele>6.441406</ele>
        <time>2014-02-12T15:42:21Z</time>
      </trkpt>
      <trkpt lat="45.70386" lon="-1.16665">
        <ele>5.90625</ele>
        <time>2014-02-12T15:42:30Z</time>
      </trkpt>
      <trkpt lat="45.70376" lon="-1.16676">
        <ele>5.460938</ele>
        <time>2014-02-12T15:42:39Z</time>
      </trkpt>
      <trkpt lat="45.70365" lon="-1.16687">
        <ele>5.050781</ele>
        <time>2014-02-12T15:42:49Z</time>
      </trkpt>
      <trkpt lat="45.70355" lon="-1.16699">
        <ele>4.664062</ele>
        <time>2014-02-12T15:42:59Z</time>
      </trkpt>
      <trkpt lat="45.70346" lon="-1.1671">
        <ele>4.378906</ele>
        <time>2014-02-12T15:43:08Z</time>
      </trkpt>
      <trkpt lat="45.70338" lon="-1.16719">
        <ele>4.375</ele>
        <time>2014-02-12T15:43:16Z</time>
      </trkpt>
      <trkpt lat="45.70329" lon="-1.16729">
        <ele>4.429688</ele>
        <time>2014-02-12T15:43:25Z</time>
      </trkpt>
      <trkpt lat="45.70321" lon="-1.1674">
        <ele>4.539062</ele>
        <time>2014-02-12T15:43:34Z</time>
      </trkpt>
      <trkpt lat="45.70315" lon="-1.16748">
        <ele>4.59375</ele>
        <time>2014-02-12T15:43:44Z</time>
      </trkpt>
      <trkpt lat="45.70309" lon="-1.16755">
        <ele>4.59375</ele>
        <time>2014-02-12T15:43:50Z</time>
      </trkpt>
      <trkpt lat="45.70301" lon="-1.16763">
        <ele>4.550781</ele>
        <time>2014-02-12T15:43:57Z</time>
      </trkpt>
      <trkpt lat="45.70295" lon="-1.16772">
        <ele>4.425781</ele>
        <time>2014-02-12T15:44:04Z</time>
      </trkpt>
      <trkpt lat="45.70288" lon="-1.16779">
        <ele>4.300781</ele>
        <time>2014-02-12T15:44:11Z</time>
      </trkpt>
      <trkpt lat="45.7028" lon="-1.16788">
        <ele>4.164062</ele>
        <time>2014-02-12T15:44:19Z</time>
      </trkpt>
      <trkpt lat="45.70272" lon="-1.16798">
        <ele>4.027344</ele>
        <time>2014-02-12T15:44:27Z</time>
      </trkpt>
      <trkpt lat="45.70264" lon="-1.16807">
        <ele>4</ele>
        <time>2014-02-12T15:44:35Z</time>
      </trkpt>
      <trkpt lat="45.70257" lon="-1.16816">
        <ele>4</ele>
        <time>2014-02-12T15:44:43Z</time>
      </trkpt>
      <trkpt lat="45.7025" lon="-1.16825">
        <ele>4</ele>
        <time>2014-02-12T15:44:50Z</time>
      </trkpt>
      <trkpt lat="45.70241" lon="-1.16834">
        <ele>4</ele>
        <time>2014-02-12T15:44:58Z</time>
      </trkpt>
      <trkpt lat="45.70233" lon="-1.16843">
        <ele>4</ele>
        <time>2014-02-12T15:45:06Z</time>
      </trkpt>
      <trkpt lat="45.70226" lon="-1.16852">
        <ele>4</ele>
        <time>2014-02-12T15:45:14Z</time>
      </trkpt>
      <trkpt lat="45.70219" lon="-1.16861">
        <ele>4</ele>
        <time>2014-02-12T15:45:22Z</time>
      </trkpt>
      <trkpt lat="45.7021" lon="-1.1687">
        <ele>3.910156</ele>
        <time>2014-02-12T15:45:31Z</time>
      </trkpt>
      <trkpt lat="45.70204" lon="-1.1688">
        <ele>3.796875</ele>
        <time>2014-02-12T15:45:39Z</time>
      </trkpt>
      <trkpt lat="45.70196" lon="-1.16888">
        <ele>3.652344</ele>
        <time>2014-02-12T15:45:47Z</time>
      </trkpt>
      <trkpt lat="45.70188" lon="-1.16897">
        <ele>3.5</ele>
        <time>2014-02-12T15:45:56Z</time>
      </trkpt>
      <trkpt lat="45.70179" lon="-1.16908">
        <ele>3.347656</ele>
        <time>2014-02-12T15:46:05Z</time>
      </trkpt>
      <trkpt lat="45.70171" lon="-1.16917">
        <ele>3.207031</ele>
        <time>2014-02-12T15:46:12Z</time>
      </trkpt>
      <trkpt lat="45.70163" lon="-1.16926">
        <ele>3.058594</ele>
        <time>2014-02-12T15:46:20Z</time>
      </trkpt>
      <trkpt lat="45.70155" lon="-1.16933">
        <ele>2.929688</ele>
        <time>2014-02-12T15:46:28Z</time>
      </trkpt>
      <trkpt lat="45.70149" lon="-1.16943">
        <ele>2.792969</ele>
        <time>2014-02-12T15:46:36Z</time>
      </trkpt>
      <trkpt lat="45.70139" lon="-1.16954">
        <ele>2.71875</ele>
        <time>2014-02-12T15:46:46Z</time>
      </trkpt>
      <trkpt lat="45.7013" lon="-1.16963">
        <ele>2.710938</ele>
        <time>2014-02-12T15:46:54Z</time>
      </trkpt>
      <trkpt lat="45.70122" lon="-1.16972">
        <ele>2.75</ele>
        <time>2014-02-12T15:47:02Z</time>
      </trkpt>
      <trkpt lat="45.70112" lon="-1.16982">
        <ele>2.863281</ele>
        <time>2014-02-12T15:47:12Z</time>
      </trkpt>
      <trkpt lat="45.70103" lon="-1.16991">
        <ele>3</ele>
        <time>2014-02-12T15:47:20Z</time>
      </trkpt>
      <trkpt lat="45.70093" lon="-1.17003">
        <ele>3</ele>
        <time>2014-02-12T15:47:28Z</time>
      </trkpt>
      <trkpt lat="45.70084" lon="-1.17013">
        <ele>3</ele>
        <time>2014-02-12T15:47:36Z</time>
      </trkpt>
      <trkpt lat="45.70075" lon="-1.17021">
        <ele>3</ele>
        <time>2014-02-12T15:47:44Z</time>
      </trkpt>
      <trkpt lat="45.70068" lon="-1.17031">
        <ele>3</ele>
        <time>2014-02-12T15:47:52Z</time>
      </trkpt>
      <trkpt lat="45.70059" lon="-1.17039">
        <ele>3</ele>
        <time>2014-02-12T15:48:00Z</time>
      </trkpt>
      <trkpt lat="45.7005" lon="-1.17049">
        <ele>3</ele>
        <time>2014-02-12T15:48:08Z</time>
      </trkpt>
      <trkpt lat="45.70042" lon="-1.17059">
        <ele>3</ele>
        <time>2014-02-12T15:48:17Z</time>
      </trkpt>
      <trkpt lat="45.70033" lon="-1.17069">
        <ele>3</ele>
        <time>2014-02-12T15:48:26Z</time>
      </trkpt>
      <trkpt lat="45.70024" lon="-1.17079">
        <ele>3</ele>
        <time>2014-02-12T15:48:34Z</time>
      </trkpt>
      <trkpt lat="45.70015" lon="-1.17086">
        <ele>3</ele>
        <time>2014-02-12T15:48:43Z</time>
      </trkpt>
      <trkpt lat="45.70009" lon="-1.17093">
        <ele>3</ele>
        <time>2014-02-12T15:51:30Z</time>
      </trkpt>
      <trkpt lat="45.70002" lon="-1.171">
        <ele>3</ele>
        <time>2014-02-12T15:51:45Z</time>
      </trkpt>
      <trkpt lat="45.69993" lon="-1.1711">
        <ele>3</ele>
        <time>2014-02-12T15:51:59Z</time>
      </trkpt>
      <trkpt lat="45.69986" lon="-1.1712">
        <ele>3.140625</ele>
        <time>2014-02-12T15:52:10Z</time>
      </trkpt>
      <trkpt lat="45.69974" lon="-1.17131">
        <ele>3.347656</ele>
        <time>2014-02-12T15:52:22Z</time>
      </trkpt>
      <trkpt lat="45.69965" lon="-1.17141">
        <ele>3.515625</ele>
        <time>2014-02-12T15:52:32Z</time>
      </trkpt>
      <trkpt lat="45.69957" lon="-1.17152">
        <ele>3.660156</ele>
        <time>2014-02-12T15:52:41Z</time>
      </trkpt>
      <trkpt lat="45.69947" lon="-1.17162">
        <ele>3.824219</ele>
        <time>2014-02-12T15:52:50Z</time>
      </trkpt>
      <trkpt lat="45.69938" lon="-1.17171">
        <ele>3.992188</ele>
        <time>2014-02-12T15:52:59Z</time>
      </trkpt>
      <trkpt lat="45.69929" lon="-1.17181">
        <ele>4</ele>
        <time>2014-02-12T15:53:08Z</time>
      </trkpt>
      <trkpt lat="45.69921" lon="-1.17189">
        <ele>4</ele>
        <time>2014-02-12T15:53:16Z</time>
      </trkpt>
      <trkpt lat="45.69913" lon="-1.17198">
        <ele>4</ele>
        <time>2014-02-12T15:53:24Z</time>
      </trkpt>
      <trkpt lat="45.69905" lon="-1.17207">
        <ele>3.996094</ele>
        <time>2014-02-12T15:53:32Z</time>
      </trkpt>
      <trkpt lat="45.69898" lon="-1.17215">
        <ele>3.894531</ele>
        <time>2014-02-12T15:53:39Z</time>
      </trkpt>
      <trkpt lat="45.6989" lon="-1.17223">
        <ele>3.738281</ele>
        <time>2014-02-12T15:53:47Z</time>
      </trkpt>
      <trkpt lat="45.69882" lon="-1.17232">
        <ele>3.53125</ele>
        <time>2014-02-12T15:53:55Z</time>
      </trkpt>
      <trkpt lat="45.69874" lon="-1.17241">
        <ele>3.3125</ele>
        <time>2014-02-12T15:54:03Z</time>
      </trkpt>
      <trkpt lat="45.69866" lon="-1.17248">
        <ele>3.175781</ele>
        <time>2014-02-12T15:54:11Z</time>
      </trkpt>
      <trkpt lat="45.69858" lon="-1.17257">
        <ele>3.050781</ele>
        <time>2014-02-12T15:54:19Z</time>
      </trkpt>
      <trkpt lat="45.69851" lon="-1.17266">
        <ele>3</ele>
        <time>2014-02-12T15:54:27Z</time>
      </trkpt>
      <trkpt lat="45.69843" lon="-1.17272">
        <ele>3</ele>
        <time>2014-02-12T15:54:36Z</time>
      </trkpt>
      <trkpt lat="45.69835" lon="-1.17281">
        <ele>3</ele>
        <time>2014-02-12T15:54:44Z</time>
      </trkpt>
      <trkpt lat="45.69828" lon="-1.17291">
        <ele>3</ele>
        <time>2014-02-12T15:54:53Z</time>
      </trkpt>
      <trkpt lat="45.69818" lon="-1.173">
        <ele>2.894531</ele>
        <time>2014-02-12T15:55:03Z</time>
      </trkpt>
      <trkpt lat="45.6981" lon="-1.17311">
        <ele>2.738281</ele>
        <time>2014-02-12T15:55:12Z</time>
      </trkpt>
      <trkpt lat="45.69802" lon="-1.1732">
        <ele>2.523438</ele>
        <time>2014-02-12T15:55:20Z</time>
      </trkpt>
      <trkpt lat="45.69795" lon="-1.1733">
        <ele>2.335938</ele>
        <time>2014-02-12T15:55:26Z</time>
      </trkpt>
      <trkpt lat="45.69786" lon="-1.17338">
        <ele>2.167969</ele>
        <time>2014-02-12T15:55:37Z</time>
      </trkpt>
      <trkpt lat="45.69777" lon="-1.17347">
        <ele>2.046875</ele>
        <time>2014-02-12T15:55:45Z</time>
      </trkpt>
      <trkpt lat="45.69768" lon="-1.17357">
        <ele>2</ele>
        <time>2014-02-12T15:55:53Z</time>
      </trkpt>
      <trkpt lat="45.69762" lon="-1.17365">
        <ele>2</ele>
        <time>2014-02-12T15:55:58Z</time>
      </trkpt>
      <trkpt lat="45.69753" lon="-1.17372">
        <ele>2</ele>
        <time>2014-02-12T15:56:07Z</time>
      </trkpt>
      <trkpt lat="45.69745" lon="-1.1738">
        <ele>2</ele>
        <time>2014-02-12T15:56:17Z</time>
      </trkpt>
      <trkpt lat="45.69737" lon="-1.17391">
        <ele>2</ele>
        <time>2014-02-12T15:56:25Z</time>
      </trkpt>
      <trkpt lat="45.6973" lon="-1.17399">
        <ele>2</ele>
        <time>2014-02-12T15:56:31Z</time>
      </trkpt>
      <trkpt lat="45.69721" lon="-1.17408">
        <ele>2</ele>
        <time>2014-02-12T15:56:37Z</time>
      </trkpt>
      <trkpt lat="45.69714" lon="-1.17416">
        <ele>2</ele>
        <time>2014-02-12T15:56:47Z</time>
      </trkpt>
      <trkpt lat="45.69704" lon="-1.17425">
        <ele>2</ele>
        <time>2014-02-12T15:56:57Z</time>
      </trkpt>
      <trkpt lat="45.69696" lon="-1.17434">
        <ele>2</ele>
        <time>2014-02-12T15:57:07Z</time>
      </trkpt>
      <trkpt lat="45.69687" lon="-1.17443">
        <ele>2</ele>
        <time>2014-02-12T15:57:13Z</time>
      </trkpt>
      <trkpt lat="45.69679" lon="-1.17452">
        <ele>2</ele>
        <time>2014-02-12T15:57:21Z</time>
      </trkpt>
      <trkpt lat="45.69669" lon="-1.1746">
        <ele>2</ele>
        <time>2014-02-12T15:57:30Z</time>
      </trkpt>
      <trkpt lat="45.69659" lon="-1.17471">
        <ele>2</ele>
        <time>2014-02-12T15:57:39Z</time>
      </trkpt>
      <trkpt lat="45.69652" lon="-1.17479">
        <ele>2</ele>
        <time>2014-02-12T15:57:47Z</time>
      </trkpt>
      <trkpt lat="45.69645" lon="-1.17487">
        <ele>2</ele>
        <time>2014-02-12T15:57:52Z</time>
      </trkpt>
      <trkpt lat="45.69637" lon="-1.17496">
        <ele>2</ele>
        <time>2014-02-12T15:58:02Z</time>
      </trkpt>
      <trkpt lat="45.69629" lon="-1.17504">
        <ele>2</ele>
        <time>2014-02-12T15:58:09Z</time>
      </trkpt>
      <trkpt lat="45.69621" lon="-1.17515">
        <ele>2</ele>
        <time>2014-02-12T15:58:17Z</time>
      </trkpt>
      <trkpt lat="45.69612" lon="-1.17523">
        <ele>2</ele>
        <time>2014-02-12T15:58:26Z</time>
      </trkpt>
      <trkpt lat="45.696" lon="-1.17535">
        <ele>2</ele>
        <time>2014-02-12T15:58:36Z</time>
      </trkpt>
      <trkpt lat="45.69591" lon="-1.17548">
        <ele>2.109375</ele>
        <time>2014-02-12T15:58:45Z</time>
      </trkpt>
      <trkpt lat="45.69583" lon="-1.17556">
        <ele>2.183594</ele>
        <time>2014-02-12T15:58:52Z</time>
      </trkpt>
      <trkpt lat="45.69576" lon="-1.17564">
        <ele>2.214844</ele>
        <time>2014-02-12T15:59:00Z</time>
      </trkpt>
      <trkpt lat="45.69567" lon="-1.1757">
        <ele>2.179688</ele>
        <time>2014-02-12T15:59:09Z</time>
      </trkpt>
      <trkpt lat="45.6956" lon="-1.17582">
        <ele>2.152344</ele>
        <time>2014-02-12T15:59:19Z</time>
      </trkpt>
      <trkpt lat="45.69552" lon="-1.17592">
        <ele>2.050781</ele>
        <time>2014-02-12T15:59:28Z</time>
      </trkpt>
      <trkpt lat="45.69543" lon="-1.17601">
        <ele>2</ele>
        <time>2014-02-12T15:59:36Z</time>
      </trkpt>
      <trkpt lat="45.69536" lon="-1.17609">
        <ele>2</ele>
        <time>2014-02-12T15:59:44Z</time>
      </trkpt>
      <trkpt lat="45.69526" lon="-1.17618">
        <ele>2</ele>
        <time>2014-02-12T15:59:52Z</time>
      </trkpt>
      <trkpt lat="45.69518" lon="-1.17628">
        <ele>2</ele>
        <time>2014-02-12T16:00:01Z</time>
      </trkpt>
      <trkpt lat="45.69509" lon="-1.17637">
        <ele>2</ele>
        <time>2014-02-12T16:00:09Z</time>
      </trkpt>
      <trkpt lat="45.695" lon="-1.17647">
        <ele>2</ele>
        <time>2014-02-12T16:00:19Z</time>
      </trkpt>
      <trkpt lat="45.69491" lon="-1.17658">
        <ele>2</ele>
        <time>2014-02-12T16:00:32Z</time>
      </trkpt>
      <trkpt lat="45.6948" lon="-1.17669">
        <ele>2</ele>
        <time>2014-02-12T16:00:42Z</time>
      </trkpt>
      <trkpt lat="45.6947" lon="-1.17679">
        <ele>2</ele>
        <time>2014-02-12T16:00:49Z</time>
      </trkpt>
      <trkpt lat="45.69462" lon="-1.17687">
        <ele>2</ele>
        <time>2014-02-12T16:00:58Z</time>
      </trkpt>
      <trkpt lat="45.69454" lon="-1.17692">
        <ele>2</ele>
        <time>2014-02-12T16:01:05Z</time>
      </trkpt>
      <trkpt lat="45.69446" lon="-1.17702">
        <ele>2</ele>
        <time>2014-02-12T16:01:11Z</time>
      </trkpt>
      <trkpt lat="45.69439" lon="-1.1771">
        <ele>2</ele>
        <time>2014-02-12T16:01:18Z</time>
      </trkpt>
      <trkpt lat="45.69432" lon="-1.17717">
        <ele>2.109375</ele>
        <time>2014-02-12T16:01:26Z</time>
      </trkpt>
      <trkpt lat="45.69424" lon="-1.17725">
        <ele>2.257812</ele>
        <time>2014-02-12T16:01:34Z</time>
      </trkpt>
      <trkpt lat="45.69417" lon="-1.17734">
        <ele>2.382812</ele>
        <time>2014-02-12T16:01:42Z</time>
      </trkpt>
      <trkpt lat="45.69406" lon="-1.17728">
        <ele>2.578125</ele>
        <time>2014-02-12T16:01:53Z</time>
      </trkpt>
      <trkpt lat="45.69401" lon="-1.17717">
        <ele>2.667969</ele>
        <time>2014-02-12T16:02:00Z</time>
      </trkpt>
      <trkpt lat="45.69394" lon="-1.17703">
        <ele>2.785156</ele>
        <time>2014-02-12T16:02:07Z</time>
      </trkpt>
      <trkpt lat="45.69392" lon="-1.17693">
        <ele>2.828125</ele>
        <time>2014-02-12T16:02:15Z</time>
      </trkpt>
      <trkpt lat="45.69389" lon="-1.1768">
        <ele>2.886719</ele>
        <time>2014-02-12T16:02:25Z</time>
      </trkpt>
      <trkpt lat="45.69391" lon="-1.17662">
        <ele>2.847656</ele>
        <time>2014-02-12T16:02:34Z</time>
      </trkpt>
      <trkpt lat="45.69393" lon="-1.17647">
        <ele>2.816406</ele>
        <time>2014-02-12T16:02:42Z</time>
      </trkpt>
      <trkpt lat="45.69393" lon="-1.17632">
        <ele>2.8125</ele>
        <time>2014-02-12T16:02:54Z</time>
      </trkpt>
      <trkpt lat="45.69395" lon="-1.17617">
        <ele>2.78125</ele>
        <time>2014-02-12T16:03:03Z</time>
      </trkpt>
      <trkpt lat="45.69397" lon="-1.17603">
        <ele>2.746094</ele>
        <time>2014-02-12T16:03:10Z</time>
      </trkpt>
      <trkpt lat="45.69398" lon="-1.17586">
        <ele>2.847656</ele>
        <time>2014-02-12T16:03:21Z</time>
      </trkpt>
      <trkpt lat="45.69398" lon="-1.17571">
        <ele>3.039062</ele>
        <time>2014-02-12T16:03:31Z</time>
      </trkpt>
      <trkpt lat="45.69399" lon="-1.17556">
        <ele>3.21875</ele>
        <time>2014-02-12T16:03:40Z</time>
      </trkpt>
      <trkpt lat="45.69402" lon="-1.17537">
        <ele>3.316406</ele>
        <time>2014-02-12T16:03:51Z</time>
      </trkpt>
      <trkpt lat="45.69402" lon="-1.17523">
        <ele>3.40625</ele>
        <time>2014-02-12T16:03:59Z</time>
      </trkpt>
      <trkpt lat="45.69405" lon="-1.17508">
        <ele>3.414062</ele>
        <time>2014-02-12T16:04:09Z</time>
      </trkpt>
      <trkpt lat="45.69406" lon="-1.17491">
        <ele>3.53125</ele>
        <time>2014-02-12T16:04:15Z</time>
      </trkpt>
      <trkpt lat="45.6941" lon="-1.17475">
        <ele>3.511719</ele>
        <time>2014-02-12T16:04:24Z</time>
      </trkpt>
      <trkpt lat="45.69414" lon="-1.17463">
        <ele>3.441406</ele>
        <time>2014-02-12T16:04:30Z</time>
      </trkpt>
      <trkpt lat="45.69415" lon="-1.17449">
        <ele>3.417969</ele>
        <time>2014-02-12T16:04:38Z</time>
      </trkpt>
      <trkpt lat="45.69414" lon="-1.17435">
        <ele>3.425781</ele>
        <time>2014-02-12T16:04:47Z</time>
      </trkpt>
      <trkpt lat="45.69415" lon="-1.17419">
        <ele>3.417969</ele>
        <time>2014-02-12T16:04:56Z</time>
      </trkpt>
      <trkpt lat="45.69419" lon="-1.17404">
        <ele>3.34375</ele>
        <time>2014-02-12T16:05:05Z</time>
      </trkpt>
      <trkpt lat="45.69421" lon="-1.17389">
        <ele>3.308594</ele>
        <time>2014-02-12T16:05:15Z</time>
      </trkpt>
      <trkpt lat="45.69423" lon="-1.17371">
        <ele>3.289062</ele>
        <time>2014-02-12T16:05:26Z</time>
      </trkpt>
      <trkpt lat="45.69424" lon="-1.17348">
        <ele>3.378906</ele>
        <time>2014-02-12T16:05:37Z</time>
      </trkpt>
      <trkpt lat="45.69426" lon="-1.1733">
        <ele>3.382812</ele>
        <time>2014-02-12T16:05:47Z</time>
      </trkpt>
      <trkpt lat="45.69427" lon="-1.17314">
        <ele>3.414062</ele>
        <time>2014-02-12T16:05:58Z</time>
      </trkpt>
      <trkpt lat="45.6943" lon="-1.17298">
        <ele>3.339844</ele>
        <time>2014-02-12T16:06:09Z</time>
      </trkpt>
      <trkpt lat="45.69431" lon="-1.17282">
        <ele>3.355469</ele>
        <time>2014-02-12T16:06:19Z</time>
      </trkpt>
      <trkpt lat="45.6943" lon="-1.17264">
        <ele>3.425781</ele>
        <time>2014-02-12T16:06:28Z</time>
      </trkpt>
      <trkpt lat="45.69432" lon="-1.1725">
        <ele>3.375</ele>
        <time>2014-02-12T16:06:38Z</time>
      </trkpt>
      <trkpt lat="45.69432" lon="-1.17237">
        <ele>3.402344</ele>
        <time>2014-02-12T16:06:47Z</time>
      </trkpt>
      <trkpt lat="45.69432" lon="-1.17222">
        <ele>3.410156</ele>
        <time>2014-02-12T16:06:56Z</time>
      </trkpt>
      <trkpt lat="45.69434" lon="-1.17206">
        <ele>3.269531</ele>
        <time>2014-02-12T16:07:08Z</time>
      </trkpt>
      <trkpt lat="45.69437" lon="-1.17184">
        <ele>3.101562</ele>
        <time>2014-02-12T16:07:20Z</time>
      </trkpt>
      <trkpt lat="45.69436" lon="-1.1717">
        <ele>3.171875</ele>
        <time>2014-02-12T16:07:27Z</time>
      </trkpt>
      <trkpt lat="45.69446" lon="-1.17159">
        <ele>2.855469</ele>
        <time>2014-02-12T16:08:28Z</time>
      </trkpt>
      <trkpt lat="45.69463" lon="-1.17149">
        <ele>2.574219</ele>
        <time>2014-02-12T16:08:40Z</time>
      </trkpt>
      <trkpt lat="45.69485" lon="-1.1715">
        <ele>2.152344</ele>
        <time>2014-02-12T16:10:39Z</time>
      </trkpt>
    </trkseg>
  </trk>
</gpx>